Last 30 Days

Las Positas

Hourly Data | America/Los_Angeles
as of 8/31/26 10:43 PM PDT
Date & Time Temp (°F) RH (%) Dew Pt (°F) Wet Bulb (°F) Wind Dir (°) Wind Spd (mph) Wind Gust (mph) Wind Gst Dir (°) Latest Rain (In) BatVolt (V) Daily Rain (In) Daily Min Temp (°F) Daily Max Temp (°F) Daily Max Wind (mph)
8/31/26 - 2200 58.9 70 49.2 54.0 SW | 232 6.6 16.2 SW | 220 0.00 13.6 0.00 55.4 67.9 24.1
8/31/26 - 2100 59.2 70 49.6 54.4 WSW | 238 6.9 17.5 SSW | 211 0.00 13.6 0.00 55.4 67.9 24.1
8/31/26 - 2000 60.4 69 50.2 55.2 WSW | 251 9.2 20.6 SW | 219 0.00 13.6 0.00 55.4 67.9 24.1
8/31/26 - 1900 62.6 64 50.2 56.0 WSW | 254 9.9 22.8 WNW | 292 0.00 13.5 0.00 55.4 67.9 24.1
8/31/26 - 1800 64.7 60 50.6 57.0 W | 262 11.9 24.1 W | 280 0.00 13.7 0.00 55.4 67.9 24.1
8/31/26 - 1700 66.2 57 50.7 57.5 W | 274 10.6 23.4 SW | 222 0.00 13.5 0.00 55.4 67.9 23.4
8/31/26 - 1600 66.8 56 50.8 57.7 W | 262 10.4 21.7 WNW | 292 0.00 13.4 0.00 55.4 67.9 23.2
8/31/26 - 1500 66.2 58 50.9 57.6 W | 262 10.5 23.2 WNW | 295 0.00 13.6 0.00 55.4 67.4 23.2
8/31/26 - 1400 65.7 58 50.7 57.3 WSW | 252 10.0 22.6 W | 279 0.00 13.4 0.00 55.4 66.8 22.6
8/31/26 - 1300 64.2 62 50.9 57.0 WSW | 256 9.3 21.5 W | 266 0.00 13.4 0.00 55.4 65.6 21.5
8/31/26 - 1200 63.5 62 50.1 56.2 SW | 236 8.9 19.3 SW | 228 0.00 13.5 0.00 55.4 64.5 19.3
8/31/26 - 1100 61.9 64 49.6 55.4 SW | 231 8.5 18.8 SW | 227 0.00 13.5 0.00 55.4 63.6 18.8
8/31/26 - 1000 60.0 69 49.8 54.8 SW | 231 6.6 15.3 WSW | 250 0.00 13.6 0.00 55.4 60.7 17.8
8/31/26 - 0900 58.6 74 50.3 54.6 SW | 227 5.6 11.8 WSW | 240 0.00 13.7 0.00 55.4 59.6 17.8
8/31/26 - 0800 57.5 77 50.5 54.3 WSW | 242 5.5 14.5 SW | 230 0.00 13.8 0.00 55.4 58.1 17.8
8/31/26 - 0700 56.6 80 50.5 54.0 WSW | 258 7.6 16.0 W | 276 0.00 13.6 0.00 55.4 57.1 17.8
8/31/26 - 0600 56.5 83 51.4 54.5 WSW | 256 6.5 17.8 W | 264 0.00 13.7 0.00 55.4 56.8 17.8
8/31/26 - 0500 55.9 86 51.8 54.5 W | 276 6.3 14.7 WNW | 288 0.00 13.7 0.00 55.4 56.6 14.7
8/31/26 - 0400 55.6 86 51.6 54.3 WNW | 302 4.8 11.6 NW | 312 0.00 13.8 0.00 55.4 56.0 13.2
8/31/26 - 0300 55.8 86 51.7 54.4 NW | 304 5.2 13.2 W | 277 0.00 13.7 0.00 55.7 56.0 13.2
8/31/26 - 0200 55.9 85 51.6 54.4 WNW | 301 4.6 12.5 NW | 312 0.00 13.6 0.00 55.8 56.0 12.5
8/31/26 - 0100 56.8 80 50.8 54.2 WNW | 294 4.8 13.2 WNW | 294 0.00 13.7 0.00 53.7 81.9 19.3
8/31/26 - 0000 58.2 73 49.6 54.1 WNW | 299 3.2 9.6 WSW | 242 0.00 13.8 0.00 53.7 81.9 19.3
8/30/26 - 2300 59.5 70 49.8 54.6 NW | 314 2.1 8.8 NNW | 332 0.00 13.5 0.00 53.7 81.9 19.3
8/30/26 - 2200 61.2 65 49.3 55.0 W | 281 4.1 12.3 WNW | 292 0.00 13.7 0.00 53.7 81.9 19.3
8/30/26 - 2100 64.0 58 48.7 55.6 WSW | 255 5.7 13.4 WSW | 240 0.00 13.5 0.00 53.7 81.9 19.3
8/30/26 - 2000 68.0 49 47.9 56.4 W | 267 7.5 19.3 WNW | 289 0.00 13.5 0.00 53.7 81.9 19.3
8/30/26 - 1900 73.6 43 49.5 58.9 W | 274 8.3 18.0 W | 280 0.00 13.4 0.00 53.7 81.9 18.0
8/30/26 - 1800 77.6 37 49.6 59.9 WNW | 282 8.0 17.1 WNW | 291 0.00 13.5 0.00 53.7 81.9 17.1
8/30/26 - 1700 80.6 34 50.0 60.8 WNW | 282 6.7 14.9 WNW | 295 0.00 13.4 0.00 53.7 81.9 14.9
8/30/26 - 1600 81.0 32 48.3 60.0 W | 267 5.8 13.8 WNW | 290 0.00 13.4 0.00 53.7 81.9 13.8
8/30/26 - 1500 79.7 34 48.7 59.9 W | 261 5.0 13.6 WSW | 247 0.00 13.3 0.00 53.7 81.1 13.6
8/30/26 - 1400 77.7 36 48.8 59.5 WSW | 253 4.8 11.6 WNW | 293 0.00 13.4 0.00 53.7 78.9 12.9
8/30/26 - 1300 74.7 41 49.4 59.2 WSW | 239 4.5 12.5 WSW | 248 0.00 13.5 0.00 53.7 76.3 12.9
8/30/26 - 1200 71.2 47 50.0 58.6 W | 260 4.0 11.8 WSW | 250 0.00 13.5 0.00 53.7 73.9 12.9
8/30/26 - 1100 67.3 54 50.1 57.5 WSW | 254 3.9 10.1 W | 278 0.00 13.4 0.00 53.7 70.1 12.9
8/30/26 - 1000 62.6 66 51.1 56.5 W | 269 4.8 11.8 NW | 306 0.00 13.6 0.00 53.7 65.2 12.9
8/30/26 - 0900 59.4 76 52.0 56.0 W | 279 5.1 12.5 WNW | 288 0.00 13.5 0.00 53.7 60.8 12.9
8/30/26 - 0800 56.1 84 51.4 54.3 NW | 318 5.3 12.9 NW | 319 0.00 13.8 0.00 53.7 57.7 12.9
8/30/26 - 0700 54.5 84 49.9 52.8 NW | 317 3.6 11.4 NW | 315 0.00 13.8 0.00 53.7 57.4 11.4
8/30/26 - 0600 54.5 86 50.3 53.0 NW | 323 4.1 9.9 WNW | 300 0.00 13.7 0.00 54.0 57.4 10.5
8/30/26 - 0500 54.6 85 50.2 53.0 NW | 326 4.6 10.5 NNW | 331 0.00 13.8 0.00 54.1 57.4 10.5
8/30/26 - 0400 55.8 82 50.4 53.6 WNW | 303 3.7 8.8 NW | 312 0.00 13.7 0.00 55.4 57.4 10.3
8/30/26 - 0300 56.2 81 50.3 53.7 NW | 305 2.6 8.1 NW | 304 0.00 13.6 0.00 55.7 57.4 10.3
8/30/26 - 0200 56.9 80 50.8 54.3 NW | 305 3.5 10.3 NW | 306 0.00 13.8 0.00 56.3 57.4 10.3
8/30/26 - 0100 58.0 78 51.1 54.9 WNW | 296 5.6 12.9 NW | 310 0.00 13.5 0.00 56.2 81.8 19.7
8/30/26 - 0000 58.7 76 51.2 55.2 NW | 310 5.5 14.0 WNW | 285 0.00 13.8 0.00 56.2 81.8 19.7
8/29/26 - 2300 59.2 71 49.8 54.5 WNW | 296 4.5 12.5 NW | 311 0.00 13.7 0.00 56.2 81.8 19.7
8/29/26 - 2200 60.2 68 49.4 54.7 W | 279 5.4 12.1 SW | 218 0.00 13.5 0.00 56.2 81.8 19.7
8/29/26 - 2100 61.7 66 50.2 55.7 W | 281 7.7 14.9 WNW | 284 0.00 13.7 0.00 56.2 81.8 19.7
8/29/26 - 2000 66.6 57 50.6 57.5 W | 280 4.9 12.3 WNW | 283 0.00 13.4 0.00 56.2 81.8 19.7
8/29/26 - 1900 73.4 42 49.0 58.6 W | 266 5.3 11.2 WSW | 251 0.00 13.4 0.00 56.2 81.8 19.7
8/29/26 - 1800 76.0 37 48.0 58.7 W | 271 7.2 15.3 WNW | 282 0.00 13.4 0.00 56.2 81.8 19.7
8/29/26 - 1700 78.4 32 46.1 58.3 W | 278 8.7 19.1 WNW | 285 0.00 13.4 0.00 56.2 81.8 19.7
8/29/26 - 1600 80.8 26 43.0 57.5 W | 270 8.9 18.2 WNW | 284 0.00 13.4 0.00 56.2 81.8 19.7
8/29/26 - 1500 80.9 26 42.8 57.5 W | 266 8.8 19.7 W | 274 0.00 13.3 0.00 56.2 81.8 19.7
8/29/26 - 1400 80.0 26 42.5 57.1 W | 261 8.9 19.7 WNW | 299 0.00 13.3 0.00 56.2 80.9 19.7
8/29/26 - 1300 77.1 33 45.5 57.8 WSW | 258 8.6 18.0 W | 269 0.00 13.3 0.00 56.2 79.0 18.0
8/29/26 - 1200 73.8 44 50.3 59.4 WSW | 256 7.4 16.2 W | 275 0.00 13.4 0.00 56.2 75.5 16.2
8/29/26 - 1100 69.4 55 52.6 59.6 W | 268 6.1 13.2 WNW | 289 0.00 13.4 0.00 56.2 71.4 14.2
8/29/26 - 1000 65.3 64 53.0 58.6 W | 269 5.1 12.5 WNW | 292 0.00 13.6 0.00 56.2 67.6 14.2
8/29/26 - 0900 61.0 76 53.4 57.5 WSW | 253 3.0 8.8 W | 281 0.00 13.5 0.00 56.2 64.0 14.2
8/29/26 - 0800 56.8 86 52.7 55.4 NW | 308 4.4 13.6 NNW | 328 0.00 13.6 0.00 56.2 64.0 14.2
8/29/26 - 0700 56.7 85 52.1 55.0 WNW | 286 2.8 9.0 NNW | 329 0.00 13.7 0.00 56.3 64.0 14.2
8/29/26 - 0600 56.8 84 52.1 55.1 WNW | 298 4.1 10.7 WNW | 294 0.00 13.6 0.00 56.4 64.0 14.2
8/29/26 - 0500 57.2 82 51.8 55.0 NW | 318 5.3 14.2 NNW | 330 0.00 13.6 0.00 56.8 64.0 14.2
8/29/26 - 0400 59.7 73 50.9 55.4 WNW | 295 3.0 10.5 WNW | 284 0.00 13.6 0.00 57.7 64.0 10.5
8/29/26 - 0300 62.0 66 50.6 56.1 W | 276 2.0 8.1 NW | 307 0.00 13.7 0.00 61.1 64.0 8.1
8/29/26 - 0200 63.5 59 48.7 55.5 WNW | 296 2.0 7.5 NW | 304 0.00 13.6 0.00 62.6 64.0 7.5
8/29/26 - 0100 64.4 50 45.6 54.1 W | 262 1.3 4.8 W | 271 0.00 13.5 0.00 63.6 80.8 21.0
8/29/26 - 0000 65.8 47 44.8 54.2 WSW | 243 1.3 4.6 NNW | 338 0.00 13.5 0.00 64.8 80.8 21.0
8/28/26 - 2300 67.0 43 43.9 54.1 WNW | 303 2.1 7.5 NNW | 334 0.00 13.6 0.00 65.8 80.8 21.0
8/28/26 - 2200 68.9 38 42.2 54.0 WNW | 288 1.2 6.6 NW | 321 0.00 13.5 0.00 65.8 80.8 21.0
8/28/26 - 2100 70.5 40 45.2 55.8 WNW | 297 1.9 7.2 WNW | 302 0.00 13.5 0.00 65.8 80.8 21.0
8/28/26 - 2000 74.8 29 40.1 54.8 W | 277 1.5 5.3 WNW | 293 0.00 13.4 0.00 65.8 80.8 21.0
8/28/26 - 1900 74.5 35 44.8 56.8 SW | 233 2.5 7.5 WSW | 248 0.00 13.5 0.00 65.8 80.8 21.0
8/28/26 - 1800 73.7 39 46.7 57.5 W | 273 7.7 21.0 WNW | 297 0.00 13.4 0.00 65.8 80.8 21.0
8/28/26 - 1700 79.6 26 41.5 56.8 W | 259 4.8 12.3 WSW | 253 0.00 13.4 0.00 65.8 80.8 16.0
8/28/26 - 1600 78.2 30 44.1 57.4 W | 270 6.4 14.2 WNW | 285 0.00 13.4 0.00 65.8 80.8 16.0
8/28/26 - 1500 78.0 28 42.0 56.6 WSW | 256 6.7 16.0 W | 263 0.00 13.4 0.00 65.8 80.2 16.0
8/28/26 - 1400 73.1 40 47.6 57.7 WSW | 244 6.2 12.7 SW | 236 0.00 13.6 0.00 65.8 75.9 12.7
8/28/26 - 1300 70.9 45 48.5 57.6 W | 270 4.8 11.6 W | 261 0.00 13.5 0.00 65.8 75.1 12.5
8/28/26 - 1200 72.3 44 49.1 58.4 WSW | 241 5.2 12.5 WNW | 290 0.00 13.5 0.00 65.8 75.1 12.5
8/28/26 - 1100 74.5 34 44.6 56.7 SW | 231 2.6 11.4 WSW | 253 0.00 13.4 0.00 65.8 75.1 11.4
8/28/26 - 1000 72.1 36 43.4 55.5 WNW | 293 2.3 7.5 NNW | 334 0.00 13.6 0.00 65.8 74.2 10.5
8/28/26 - 0900 68.2 48 47.9 56.5 WNW | 284 2.8 10.5 NW | 311 0.00 13.6 0.00 65.8 69.9 10.5
8/28/26 - 0800 66.8 52 48.7 56.5 WNW | 288 0.6 2.8 NNW | 330 0.00 13.6 0.00 65.8 68.1 3.5
8/28/26 - 0700 66.5 49 46.6 55.3 NNE | 20 0.8 3.3 NE | 49 0.00 13.6 0.00 65.8 68.1 3.5
8/28/26 - 0600 66.8 49 47.2 55.7 W | 261 0.6 2.2 SSW | 193 0.00 13.6 0.00 66.0 68.1 3.5
8/28/26 - 0500 66.6 47 45.6 54.8 SW | 233 0.4 3.1 SSW | 198 0.00 13.6 0.00 66.0 68.1 3.5
8/28/26 - 0400 66.4 47 45.4 54.6 W | 278 0.9 3.1 WNW | 286 0.00 13.5 0.00 66.0 68.1 3.5
8/28/26 - 0300 67.0 47 45.9 55.1 WNW | 289 0.7 3.1 WNW | 282 0.00 13.5 0.00 66.5 68.1 3.5
8/28/26 - 0200 67.6 46 46.2 55.5 WSW | 256 0.5 3.5 NW | 304 0.00 13.5 0.00 67.3 68.1 3.5
8/28/26 - 0100 68.3 48 48.0 56.6 W | 280 1.5 5.5 W | 266 0.00 13.5 0.00 62.1 92.5 20.0
8/28/26 - 0000 68.8 52 50.4 58.1 W | 274 1.6 5.9 NW | 312 0.00 13.6 0.00 62.1 92.5 20.0
8/27/26 - 2300 70.4 48 49.8 58.2 W | 277 3.9 11.6 WNW | 288 0.00 13.4 0.00 62.1 92.5 20.0
8/27/26 - 2200 73.7 35 44.3 56.4 W | 280 2.5 8.1 W | 272 0.00 13.4 0.00 62.1 92.5 20.0
8/27/26 - 2100 76.3 28 40.4 55.4 WSW | 252 4.1 11.2 W | 268 0.00 13.5 0.00 62.1 92.5 20.0
8/27/26 - 2000 77.8 31 44.8 57.6 WSW | 240 2.7 10.7 WNW | 286 0.00 13.5 0.00 62.1 92.5 20.0
8/27/26 - 1900 80.0 26 41.8 56.9 W | 274 7.0 16.9 W | 276 0.00 13.5 0.00 62.1 92.5 20.0
8/27/26 - 1800 83.1 28 46.5 59.6 W | 272 7.9 20.0 WNW | 291 0.00 13.4 0.00 62.1 92.5 20.0
8/27/26 - 1700 89.3 25 48.8 61.7 WSW | 250 5.2 14.5 WNW | 289 0.00 13.3 0.00 62.1 92.5 14.7
8/27/26 - 1600 90.5 23 47.3 61.2 WSW | 248 4.6 12.5 SW | 225 0.00 13.3 0.00 62.1 91.7 14.7
8/27/26 - 1500 89.0 24 47.6 61.1 SW | 235 5.8 14.2 SSW | 212 0.00 13.4 0.00 62.1 90.1 14.7
8/27/26 - 1400 85.8 31 51.4 62.5 WSW | 249 6.1 14.7 W | 276 0.00 13.3 0.00 62.1 88.2 14.7
8/27/26 - 1300 86.1 32 52.5 63.1 WSW | 237 5.7 14.2 WSW | 251 0.00 13.2 0.00 62.1 87.1 14.2
8/27/26 - 1200 84.9 33 52.2 62.7 SW | 214 4.3 11.0 SSW | 195 0.00 13.3 0.00 62.1 86.2 11.4
8/27/26 - 1100 80.7 36 51.6 61.6 SW | 222 4.2 11.4 SW | 224 0.00 13.3 0.00 62.1 83.1 11.4
8/27/26 - 1000 76.0 43 51.9 60.8 SW | 224 4.6 10.5 WSW | 242 0.00 13.5 0.00 62.1 78.6 10.5
8/27/26 - 0900 70.9 50 51.3 59.2 SSW | 208 2.6 6.1 SSW | 205 0.00 13.5 0.00 62.1 73.0 6.4
8/27/26 - 0800 64.7 61 50.9 57.1 NE | 56 1.5 3.5 NE | 37 0.00 13.6 0.00 62.1 69.1 6.4
8/27/26 - 0700 62.6 64 50.4 56.1 W | 278 1.0 4.2 NNW | 331 0.00 13.7 0.00 62.1 69.1 6.4
8/27/26 - 0600 63.1 64 50.8 56.6 W | 280 1.5 5.7 WNW | 293 0.00 13.6 0.00 62.6 69.1 6.4
8/27/26 - 0500 64.3 61 50.8 56.9 WNW | 284 1.4 4.4 WNW | 303 0.00 13.7 0.00 63.6 69.1 6.4
8/27/26 - 0400 65.1 58 49.9 56.6 NW | 313 1.1 3.5 NNW | 330 0.00 13.6 0.00 64.8 69.1 6.4
8/27/26 - 0300 66.9 58 51.8 58.3 NE | 52 0.9 3.1 NE | 40 0.00 13.4 0.00 64.9 69.1 6.4
8/27/26 - 0200 68.0 55 51.3 58.4 W | 277 1.9 6.4 W | 271 0.00 13.6 0.00 67.2 69.1 6.4
8/27/26 - 0100 69.2 49 49.0 57.4 W | 273 2.8 7.0 WNW | 288 0.00 13.6 0.00 57.7 94.1 20.2
8/27/26 - 0000 70.6 46 49.0 57.8 W | 263 3.0 10.1 W | 277 0.00 13.4 0.00 57.7 94.1 20.2
8/26/26 - 2300 71.2 46 49.4 58.2 W | 272 1.9 5.3 W | 280 0.00 13.6 0.00 57.7 94.1 20.2
8/26/26 - 2200 73.3 43 49.4 58.8 W | 272 1.3 5.9 WNW | 286 0.00 13.4 0.00 57.7 94.1 20.2
8/26/26 - 2100 76.4 38 48.8 59.2 W | 263 3.8 13.8 W | 276 0.00 13.5 0.00 57.7 94.1 20.2
8/26/26 - 2000 81.6 27 43.6 58.1 WSW | 241 6.8 15.8 WSW | 244 0.00 13.4 0.00 57.7 94.1 20.2
8/26/26 - 1900 86.6 20 39.9 57.7 WSW | 252 7.3 16.7 WSW | 237 0.00 13.4 0.00 57.7 94.1 20.2
8/26/26 - 1800 89.5 14 33.0 56.1 W | 266 8.9 20.2 WNW | 287 0.00 13.4 0.00 57.7 94.1 20.2
8/26/26 - 1700 92.3 12 32.6 56.6 WSW | 248 8.0 16.4 SSW | 212 0.00 13.2 0.00 57.7 94.1 16.4
8/26/26 - 1600 93.1 11 30.4 56.2 W | 259 7.0 15.1 WSW | 257 0.00 13.3 0.00 57.7 94.1 15.1
8/26/26 - 1500 92.5 10 27.7 55.4 WSW | 255 6.0 13.6 WSW | 252 0.00 13.3 0.00 57.7 93.5 13.6
8/26/26 - 1400 91.2 12 30.8 55.9 WSW | 243 5.2 12.9 SW | 232 0.00 13.2 0.00 57.7 92.7 12.9
8/26/26 - 1300 88.0 18 38.6 57.5 WSW | 237 5.1 11.8 WSW | 238 0.00 13.4 0.00 57.7 89.9 11.8
8/26/26 - 1200 82.9 28 46.1 59.4 SW | 225 4.0 9.9 SW | 226 0.00 13.4 0.00 57.7 85.7 9.9
8/26/26 - 1100 77.1 34 46.3 58.1 SW | 235 4.0 9.0 SW | 218 0.00 13.3 0.00 57.7 80.5 9.0
8/26/26 - 1000 69.9 55 52.8 59.8 SSW | 210 3.2 8.1 SSW | 212 0.00 13.4 0.00 57.7 73.8 8.1
8/26/26 - 0900 65.8 63 52.8 58.6 SW | 222 2.6 6.8 S | 180 0.00 13.4 0.00 57.7 67.5 6.8
8/26/26 - 0800 62.0 65 50.1 55.7 SW | 229 0.5 3.7 SW | 228 0.00 13.5 0.00 57.7 64.7 4.2
8/26/26 - 0700 58.7 71 49.3 54.1 NNE | 23 0.9 3.3 NE | 37 0.00 13.7 0.00 57.7 64.7 4.2
8/26/26 - 0600 59.8 69 49.5 54.6 ESE | 105 0.1 1.5 E | 85 0.00 13.7 0.00 59.5 64.7 4.2
8/26/26 - 0500 61.0 67 49.8 55.2 N | 354 0.4 2.2 NNE | 29 0.00 13.8 0.00 60.3 64.7 4.2
8/26/26 - 0400 61.2 64 49.0 54.8 NNE | 22 0.7 4.2 NE | 39 0.00 13.7 0.00 60.3 64.7 4.2
8/26/26 - 0300 63.0 64 50.5 56.4 NE | 37 0.8 3.3 NNE | 29 0.00 13.6 0.00 60.7 64.7 4.2
8/26/26 - 0200 63.6 63 50.9 56.7 WNW | 285 1.0 4.2 WNW | 302 0.00 13.7 0.00 62.7 64.7 4.2
8/26/26 - 0100 64.2 59 49.9 56.4 W | 274 2.1 7.7 WNW | 284 0.00 13.5 0.00 58.2 90.6 16.7
8/26/26 - 0000 66.0 55 49.3 56.6 W | 260 1.7 7.5 WNW | 295 0.00 13.6 0.00 58.2 90.6 16.7
8/25/26 - 2300 66.0 58 50.6 57.4 NNW | 338 2.1 9.4 WNW | 287 0.00 13.4 0.00 58.2 90.6 16.7
8/25/26 - 2200 67.9 52 49.6 57.4 W | 275 3.6 11.6 WNW | 285 0.00 13.7 0.00 58.2 90.6 16.7
8/25/26 - 2100 72.0 40 46.5 56.9 W | 280 6.6 16.7 WNW | 284 0.00 13.5 0.00 58.2 90.6 16.7
8/25/26 - 2000 76.3 40 50.0 59.8 WSW | 249 6.3 16.0 WSW | 247 0.00 13.5 0.00 58.2 90.6 16.0
8/25/26 - 1900 83.1 29 47.4 60.0 WSW | 243 6.3 15.6 WNW | 297 0.00 13.4 0.00 58.2 90.6 15.6
8/25/26 - 1800 86.9 21 42.7 58.7 WSW | 255 7.3 15.6 WSW | 239 0.00 13.3 0.00 58.2 90.6 15.6
8/25/26 - 1700 88.9 18 39.1 57.8 W | 262 7.4 15.6 WSW | 246 0.00 13.3 0.00 58.2 90.6 15.6
8/25/26 - 1600 89.7 16 36.8 57.2 WSW | 256 6.5 14.2 WSW | 248 0.00 13.2 0.00 58.2 90.2 14.2
8/25/26 - 1500 88.6 19 41.3 58.6 WSW | 255 6.2 13.2 WSW | 241 0.00 13.4 0.00 58.2 89.8 13.2
8/25/26 - 1400 87.7 23 45.3 59.9 SW | 231 4.6 12.5 SSW | 199 0.00 13.2 0.00 58.2 89.8 12.9
8/25/26 - 1300 82.2 30 47.2 59.7 SW | 233 4.6 11.6 SSW | 209 0.00 13.4 0.00 58.2 85.8 12.9
8/25/26 - 1200 75.0 47 53.0 61.2 WSW | 254 4.9 12.9 WNW | 302 0.00 13.4 0.00 58.2 77.9 12.9
8/25/26 - 1100 71.0 56 54.7 61.3 SW | 231 3.6 8.8 SW | 236 0.00 13.3 0.00 58.2 73.1 11.8
8/25/26 - 1000 65.9 68 54.8 60.0 SW | 223 3.0 10.1 NW | 304 0.00 13.6 0.00 58.2 68.4 11.8
8/25/26 - 0900 61.7 79 55.3 58.9 WSW | 251 3.6 8.8 SW | 221 0.00 13.6 0.00 58.2 63.6 11.8
8/25/26 - 0800 59.3 86 55.2 58.0 WSW | 246 3.4 8.6 SW | 232 0.00 13.8 0.00 58.2 60.1 11.8
8/25/26 - 0700 58.6 88 55.2 57.8 W | 259 3.4 8.6 SW | 233 0.00 13.7 0.00 58.2 59.4 11.8
8/25/26 - 0600 58.6 87 54.8 57.6 WSW | 255 3.0 9.4 WSW | 254 0.00 13.5 0.00 58.2 59.4 11.8
8/25/26 - 0500 58.9 88 55.3 57.9 WSW | 250 3.2 8.8 W | 268 0.00 13.6 0.00 58.2 59.4 11.8
8/25/26 - 0400 58.4 87 54.5 57.2 W | 276 3.7 8.6 WNW | 296 0.00 13.8 0.00 58.2 59.4 11.8
8/25/26 - 0300 58.7 86 54.6 57.4 W | 262 3.4 11.8 W | 280 0.00 13.6 0.00 58.6 59.4 11.8
8/25/26 - 0200 59.2 85 54.7 57.6 W | 277 3.5 10.3 WNW | 292 0.00 13.6 0.00 58.8 59.4 10.3
8/25/26 - 0100 59.9 80 53.8 57.4 WNW | 283 2.6 9.6 W | 273 0.00 13.7 0.00 59.1 90.3 24.1
8/25/26 - 0000 61.4 72 52.3 56.9 WSW | 254 2.7 7.9 WSW | 253 0.00 13.6 0.00 60.8 90.3 24.1
8/24/26 - 2300 62.6 67 51.5 56.8 WSW | 257 3.7 14.2 WNW | 282 0.00 13.7 0.00 60.8 90.3 24.1
8/24/26 - 2200 66.6 54 49.5 56.9 WNW | 287 4.3 12.3 WNW | 302 0.00 13.5 0.00 60.8 90.3 24.1
8/24/26 - 2100 69.5 50 50.0 58.0 WNW | 286 5.5 13.6 WNW | 295 0.00 13.6 0.00 60.8 90.3 24.1
8/24/26 - 2000 74.8 42 50.2 59.6 W | 279 9.2 20.4 WNW | 293 0.00 13.5 0.00 60.8 90.3 24.1
8/24/26 - 1900 79.7 36 50.0 60.6 W | 278 10.1 24.1 W | 261 0.00 13.4 0.00 60.8 90.3 24.1
8/24/26 - 1800 84.7 29 49.2 61.1 WNW | 287 8.7 22.6 WNW | 292 0.00 13.4 0.00 60.8 90.3 22.6
8/24/26 - 1700 88.3 26 49.6 61.9 W | 278 8.2 17.5 NW | 306 0.00 13.1 0.00 60.8 90.3 17.5
8/24/26 - 1600 89.4 26 49.5 62.1 W | 274 7.3 15.6 WNW | 293 0.00 13.4 0.00 60.8 90.3 15.6
8/24/26 - 1500 89.0 24 47.7 61.2 W | 268 5.5 14.7 WNW | 291 0.00 13.2 0.00 60.8 89.9 14.7
8/24/26 - 1400 86.8 29 50.6 62.2 SW | 233 4.0 11.8 SSW | 211 0.00 13.4 0.00 60.8 88.9 12.1
8/24/26 - 1300 81.5 36 52.1 62.0 W | 262 4.5 12.1 WNW | 292 0.00 13.2 0.00 60.8 84.2 12.1
8/24/26 - 1200 77.0 46 54.5 62.5 WSW | 250 4.0 11.2 W | 280 0.00 13.5 0.00 60.8 79.9 11.2
8/24/26 - 1100 72.2 54 54.6 61.6 SW | 226 3.9 9.2 S | 174 0.00 13.4 0.00 60.8 75.3 10.1
8/24/26 - 1000 67.0 65 54.9 60.3 WSW | 238 3.5 9.4 WSW | 257 0.00 13.4 0.00 60.8 69.6 10.1
8/24/26 - 0900 62.6 74 54.3 58.6 WNW | 288 3.8 10.1 WNW | 289 0.00 13.5 0.00 60.8 68.6 10.1
8/24/26 - 0800 61.4 75 53.3 57.5 WNW | 298 3.5 9.6 WNW | 300 0.00 13.7 0.00 60.8 68.6 9.6
8/24/26 - 0700 61.8 69 51.7 56.7 WSW | 251 1.0 5.5 NW | 306 0.00 13.5 0.00 61.3 68.6 6.8
8/24/26 - 0600 63.4 64 51.0 56.8 WSW | 238 1.2 6.4 NW | 318 0.00 13.5 0.00 62.3 68.6 6.8
8/24/26 - 0500 64.7 60 50.4 56.8 SW | 234 1.5 6.8 SSW | 202 0.00 13.7 0.00 64.0 68.6 6.8
8/24/26 - 0400 65.8 53 48.5 56.1 SW | 234 1.1 3.7 SW | 214 0.00 13.5 0.00 65.0 68.6 4.6
8/24/26 - 0300 67.0 51 48.2 56.3 W | 278 0.7 2.8 NW | 310 0.00 13.5 0.00 66.2 68.6 4.6
8/24/26 - 0200 68.2 48 47.8 56.4 WNW | 296 0.7 4.6 NW | 326 0.00 13.6 0.00 67.6 68.6 4.6
8/24/26 - 0100 69.3 43 45.9 55.8 WNW | 296 1.8 7.5 WNW | 296 0.00 13.5 0.00 57.0 96.8 16.7
8/24/26 - 0000 71.1 40 45.3 56.0 NW | 323 1.7 6.1 NNW | 346 0.00 13.5 0.00 57.0 96.8 16.7
8/23/26 - 2300 73.6 35 44.7 56.5 WSW | 254 1.2 7.0 NW | 314 0.00 13.6 0.00 57.0 96.8 16.7
8/23/26 - 2200 74.5 38 47.0 57.8 W | 276 3.7 10.5 WSW | 257 0.00 13.4 0.00 57.0 96.8 16.7
8/23/26 - 2100 77.8 33 46.1 58.2 W | 279 6.1 15.1 W | 278 0.00 13.4 0.00 57.0 96.8 16.7
8/23/26 - 2000 83.8 26 44.9 59.0 W | 275 7.0 14.0 W | 267 0.00 13.4 0.00 57.0 96.8 16.7
8/23/26 - 1900 88.0 19 40.7 58.2 W | 274 7.0 16.7 WNW | 289 0.00 13.2 0.00 57.0 96.8 16.7
8/23/26 - 1800 91.5 17 40.3 58.7 W | 271 7.0 16.0 WNW | 302 0.00 13.2 0.00 57.0 96.8 16.0
8/23/26 - 1700 93.1 16 39.5 58.7 W | 279 6.8 13.8 WNW | 299 0.00 13.3 0.00 57.0 96.8 13.8
8/23/26 - 1600 94.3 17 43.1 60.1 WSW | 252 4.2 12.7 WNW | 290 0.00 13.3 0.00 57.0 96.8 12.7
8/23/26 - 1500 94.3 15 38.9 58.8 SSW | 209 3.7 11.8 S | 191 0.00 13.1 0.00 57.0 95.0 11.8
8/23/26 - 1400 92.1 14 35.7 57.4 SSW | 210 3.1 9.2 S | 183 0.00 13.2 0.00 57.0 94.5 9.2
8/23/26 - 1300 87.8 21 42.7 59.0 SW | 214 3.8 9.0 SW | 222 0.00 13.2 0.00 57.0 90.7 9.0
8/23/26 - 1200 82.2 31 48.5 60.3 SSW | 210 3.6 8.1 SSW | 196 0.00 13.4 0.00 57.0 85.5 8.1
8/23/26 - 1100 75.7 41 50.1 59.7 SSW | 211 3.0 6.4 S | 190 0.00 13.4 0.00 57.0 78.7 6.4
8/23/26 - 1000 70.5 49 50.3 58.5 SSW | 204 1.8 5.7 S | 179 0.00 13.3 0.00 57.0 72.9 5.7
8/23/26 - 0900 65.0 59 50.5 57.0 SE | 129 0.8 2.4 NE | 54 0.00 13.5 0.00 57.0 67.9 5.0
8/23/26 - 0800 59.4 69 49.2 54.3 NE | 49 0.7 5.0 NE | 49 0.00 13.7 0.00 57.0 64.7 5.0
8/23/26 - 0700 57.8 72 48.8 53.4 NE | 47 1.5 4.6 NE | 38 0.00 13.6 0.00 57.0 64.7 4.6
8/23/26 - 0600 58.5 70 48.8 53.7 NE | 46 0.7 2.4 NE | 46 0.00 13.7 0.00 58.1 64.7 3.3
8/23/26 - 0500 58.8 68 48.5 53.7 NE | 45 1.0 3.1 NE | 45 0.00 13.7 0.00 58.1 64.7 3.3
8/23/26 - 0400 59.9 66 48.7 54.2 N | 4 1.1 3.1 NE | 49 0.00 13.6 0.00 58.4 64.7 3.3
8/23/26 - 0300 61.5 64 49.4 55.2 N | 356 0.5 2.2 WNW | 291 0.00 13.5 0.00 60.7 64.7 3.3
8/23/26 - 0200 63.9 61 50.1 56.4 W | 281 0.6 3.3 W | 272 0.00 13.6 0.00 62.7 64.7 3.3
8/23/26 - 0100 64.5 60 50.5 56.8 WSW | 253 1.7 5.5 NW | 323 0.00 13.6 0.00 56.8 88.5 17.8
8/23/26 - 0000 65.7 58 50.4 57.2 WNW | 298 1.1 3.9 WNW | 296 0.00 13.6 0.00 56.8 88.5 17.8
8/22/26 - 2300 67.9 54 50.5 57.9 W | 272 1.2 9.6 W | 276 0.00 13.6 0.00 56.8 88.5 17.8
8/22/26 - 2200 68.6 53 51.1 58.4 W | 275 4.1 11.8 W | 270 0.00 13.5 0.00 56.8 88.5 17.8
8/22/26 - 2100 72.0 48 51.0 59.3 W | 274 1.5 7.2 W | 275 0.00 13.4 0.00 56.8 88.5 17.8
8/22/26 - 2000 75.8 41 50.4 59.9 W | 278 4.5 14.7 W | 281 0.00 13.5 0.00 56.8 88.5 17.8
8/22/26 - 1900 80.0 36 50.7 61.0 WSW | 253 6.6 14.9 SW | 229 0.00 13.4 0.00 56.8 88.5 17.8
8/22/26 - 1800 83.1 33 50.9 61.7 WSW | 238 6.7 14.0 WSW | 245 0.00 13.2 0.00 56.8 88.5 17.8
8/22/26 - 1700 85.4 30 50.3 61.8 WSW | 241 8.0 16.2 WSW | 244 0.00 13.2 0.00 56.8 88.5 17.8
8/22/26 - 1600 87.5 26 48.3 61.2 SW | 228 7.5 16.7 SW | 229 0.00 13.2 0.00 56.8 88.5 17.8
8/22/26 - 1500 86.1 27 48.4 61.0 SW | 228 7.3 17.8 SSW | 210 0.00 13.2 0.00 56.8 87.6 17.8
8/22/26 - 1400 83.6 29 48.1 60.4 WSW | 254 5.9 13.2 WSW | 245 0.00 13.4 0.00 56.8 84.6 13.4
8/22/26 - 1300 79.8 33 48.1 59.6 SW | 229 5.7 13.4 SW | 217 0.00 13.2 0.00 56.8 82.6 13.4
8/22/26 - 1200 74.9 46 52.5 60.9 WSW | 239 4.5 10.3 SSW | 200 0.00 13.4 0.00 56.8 77.4 11.6
8/22/26 - 1100 69.3 56 53.0 59.7 W | 260 4.9 11.4 NW | 313 0.00 13.5 0.00 56.8 72.2 11.6
8/22/26 - 1000 64.9 66 53.4 58.8 WSW | 249 5.0 11.6 WNW | 293 0.00 13.5 0.00 56.8 66.2 11.6
8/22/26 - 0900 62.1 74 53.7 58.0 SW | 236 3.3 8.3 SW | 218 0.00 13.6 0.00 56.8 63.6 10.5
8/22/26 - 0800 59.3 82 53.7 57.1 W | 262 1.7 4.2 WSW | 241 0.00 13.7 0.00 56.8 61.1 10.5
8/22/26 - 0700 57.2 85 52.8 55.6 WNW | 290 1.2 3.7 WNW | 287 0.00 13.7 0.00 56.8 59.1 10.5
8/22/26 - 0600 57.7 85 53.2 56.2 W | 266 1.1 5.0 SW | 235 0.00 13.8 0.00 57.3 59.1 10.5
8/22/26 - 0500 57.7 85 53.3 56.2 W | 271 2.0 5.7 WNW | 286 0.00 13.8 0.00 57.3 59.1 10.5
8/22/26 - 0400 57.8 84 53.2 56.2 WNW | 292 3.6 7.9 WNW | 282 0.00 13.7 0.00 57.5 59.1 10.5
8/22/26 - 0300 58.3 84 53.4 56.5 WNW | 287 2.7 7.7 W | 281 0.00 13.8 0.00 58.2 59.1 10.5
8/22/26 - 0200 58.8 83 53.6 56.8 W | 277 3.2 10.5 WNW | 285 0.00 13.6 0.00 58.4 59.1 10.5
8/22/26 - 0100 59.3 82 53.7 57.0 W | 280 5.9 12.9 W | 273 0.00 13.6 0.00 56.4 82.5 21.5
8/22/26 - 0000 60.1 80 53.8 57.4 WNW | 289 5.6 13.2 W | 281 0.00 13.6 0.00 56.4 82.5 21.5
8/21/26 - 2300 61.0 77 53.6 57.6 NW | 306 5.1 12.3 W | 281 0.00 13.6 0.00 56.4 82.5 21.5
8/21/26 - 2200 62.4 70 52.7 57.5 W | 278 6.0 16.7 W | 274 0.00 13.6 0.00 56.4 82.5 21.5
8/21/26 - 2100 64.3 66 52.7 58.1 W | 269 7.8 17.8 W | 268 0.00 13.5 0.00 56.4 82.5 21.5
8/21/26 - 2000 67.8 58 52.3 58.9 W | 275 10.4 21.5 NW | 321 0.00 13.5 0.00 56.4 82.5 21.5
8/21/26 - 1900 71.2 53 53.4 60.5 WSW | 256 8.4 19.1 W | 269 0.00 13.5 0.00 56.4 82.5 19.1
8/21/26 - 1800 76.0 44 52.6 61.2 W | 265 8.8 17.8 WSW | 239 0.00 13.3 0.00 56.4 82.5 17.8
8/21/26 - 1700 79.1 40 52.6 61.9 WSW | 257 8.5 17.3 W | 278 0.00 13.4 0.00 56.4 82.5 17.3
8/21/26 - 1600 81.2 36 51.4 61.6 W | 262 7.6 16.7 WSW | 258 0.00 13.4 0.00 56.4 82.5 16.7
8/21/26 - 1500 80.5 36 50.9 61.2 W | 264 7.4 15.8 SSW | 210 0.00 13.4 0.00 56.4 81.8 15.8
8/21/26 - 1400 77.7 41 52.1 61.3 WSW | 256 6.5 14.0 SW | 224 0.00 13.4 0.00 56.4 79.4 14.2
8/21/26 - 1300 74.6 48 53.4 61.3 WSW | 242 5.7 14.0 WNW | 287 0.00 13.4 0.00 56.4 77.0 14.2
8/21/26 - 1200 70.3 57 54.3 60.9 SW | 218 4.9 12.5 SW | 219 0.00 13.4 0.00 56.4 72.4 14.2
8/21/26 - 1100 65.7 67 54.4 59.6 WSW | 238 4.7 11.2 SW | 231 0.00 13.5 0.00 56.4 66.6 14.2
8/21/26 - 1000 62.2 75 54.3 58.5 W | 259 5.6 12.7 WNW | 300 0.00 13.6 0.00 56.4 65.5 14.2
8/21/26 - 0900 59.6 83 54.5 57.6 W | 262 5.3 11.6 WNW | 303 0.00 13.5 0.00 56.4 60.7 14.2
8/21/26 - 0800 57.7 88 54.2 56.8 WSW | 255 4.3 12.3 W | 271 0.00 13.7 0.00 56.4 58.2 14.2
8/21/26 - 0700 57.0 89 53.9 56.3 W | 278 4.3 9.2 WNW | 282 0.00 13.6 0.00 56.4 58.0 14.2
8/21/26 - 0600 56.6 90 53.9 56.2 W | 276 4.7 11.0 WNW | 296 0.00 13.6 0.00 56.4 58.0 14.2
8/21/26 - 0500 56.8 90 54.1 56.4 W | 264 5.7 14.2 W | 265 0.00 13.7 0.00 56.8 58.0 14.2
8/21/26 - 0400 57.1 90 54.2 56.6 WNW | 295 4.3 11.2 WNW | 303 0.00 13.7 0.00 56.9 58.0 11.2
8/21/26 - 0300 57.2 89 54.1 56.5 WNW | 290 3.1 10.5 NW | 307 0.00 13.8 0.00 57.0 58.0 10.7
8/21/26 - 0200 57.6 88 54.2 56.8 W | 276 4.0 10.7 WNW | 296 0.00 13.6 0.00 57.3 58.0 10.7
8/21/26 - 0100 57.9 88 54.3 57.0 W | 277 4.8 12.9 WNW | 292 0.00 13.7 0.00 56.8 85.6 21.5
8/21/26 - 0000 58.2 87 54.2 57.0 W | 279 7.7 18.0 WNW | 285 0.00 13.7 0.00 56.8 85.6 21.5
8/20/26 - 2300 59.0 83 53.8 57.0 W | 266 7.4 18.6 WSW | 245 0.00 13.8 0.00 56.8 85.6 21.5
8/20/26 - 2200 60.6 78 53.8 57.6 W | 276 9.0 18.8 WNW | 285 0.00 13.6 0.00 56.8 85.6 21.5
8/20/26 - 2100 64.8 66 52.9 58.4 W | 277 7.1 15.6 WNW | 294 0.00 13.5 0.00 56.8 85.6 21.5
8/20/26 - 2000 68.6 57 52.6 59.3 WNW | 288 5.6 14.9 WNW | 303 0.00 13.5 0.00 56.8 85.6 21.5
8/20/26 - 1900 72.7 50 53.1 60.7 WNW | 288 6.3 15.1 W | 280 0.00 13.5 0.00 56.8 85.6 21.5
8/20/26 - 1800 78.6 39 51.2 61.0 W | 268 8.1 18.6 WNW | 284 0.00 13.5 0.00 56.8 85.6 21.5
8/20/26 - 1700 81.8 35 51.5 61.8 W | 277 9.2 21.5 WNW | 300 0.00 13.3 0.00 56.8 85.6 21.5
8/20/26 - 1600 84.7 34 53.4 63.3 W | 261 5.9 14.7 W | 267 0.00 13.3 0.00 56.8 85.6 14.7
8/20/26 - 1500 83.5 35 53.3 63.1 WSW | 250 5.1 11.4 WSW | 255 0.00 13.4 0.00 56.8 85.4 12.3
8/20/26 - 1400 81.2 39 53.7 62.9 WSW | 252 3.8 10.3 SW | 221 0.00 13.2 0.00 56.8 83.3 12.3
8/20/26 - 1300 77.1 44 53.8 62.2 W | 261 4.4 11.6 WNW | 286 0.00 13.3 0.00 56.8 79.7 12.3
8/20/26 - 1200 73.6 51 54.1 61.5 WSW | 243 3.7 10.5 SW | 234 0.00 13.5 0.00 56.8 76.0 12.3
8/20/26 - 1100 68.5 60 54.0 60.2 WSW | 243 4.0 10.1 WNW | 293 0.00 13.5 0.00 56.8 70.8 12.3
8/20/26 - 1000 63.6 70 53.6 58.4 SW | 234 3.2 8.1 SW | 226 0.00 13.4 0.00 56.8 66.2 12.3
8/20/26 - 0900 59.2 82 53.8 57.0 W | 275 3.8 10.1 NW | 304 0.00 13.5 0.00 56.8 60.6 12.3
8/20/26 - 0800 57.7 86 53.6 56.3 WNW | 291 3.9 8.8 WNW | 283 0.00 13.7 0.00 56.8 60.5 12.3
8/20/26 - 0700 57.2 88 53.6 56.2 W | 280 5.2 12.3 W | 280 0.00 13.7 0.00 56.8 60.5 12.3
8/20/26 - 0600 57.3 90 54.3 56.7 NW | 306 3.6 9.2 WNW | 300 0.00 13.6 0.00 56.8 60.5 10.7
8/20/26 - 0500 57.2 88 53.6 56.2 NW | 308 4.5 10.7 WNW | 285 0.00 13.6 0.00 56.8 60.5 10.7
8/20/26 - 0400 57.5 85 53.2 56.1 WNW | 286 3.3 10.7 WNW | 282 0.00 13.6 0.00 57.3 60.5 10.7
8/20/26 - 0300 58.7 78 52.0 55.7 WNW | 291 2.1 8.3 NW | 314 0.00 13.7 0.00 57.6 60.5 8.3
8/20/26 - 0200 60.1 75 52.2 56.4 W | 261 1.0 5.0 NW | 322 0.00 13.7 0.00 59.8 60.5 5.0
8/20/26 - 0100 60.9 72 51.7 56.3 W | 268 2.2 7.7 WNW | 286 0.00 13.7 0.00 57.5 91.9 19.1
8/20/26 - 0000 64.0 64 51.5 57.2 W | 264 3.1 9.4 W | 280 0.00 13.6 0.00 57.5 91.9 19.1
8/19/26 - 2300 65.5 61 51.8 57.9 WSW | 258 3.5 11.0 W | 271 0.00 13.6 0.00 57.5 91.9 19.1
8/19/26 - 2200 68.2 54 51.0 58.3 WNW | 290 4.6 12.3 WNW | 300 0.00 13.6 0.00 57.5 91.9 19.1
8/19/26 - 2100 71.5 46 49.8 58.5 WNW | 283 4.7 14.2 WNW | 288 0.00 13.6 0.00 57.5 91.9 19.1
8/19/26 - 2000 77.6 36 48.5 59.3 WNW | 291 6.4 16.2 WNW | 286 0.00 13.5 0.00 57.5 91.9 19.1
8/19/26 - 1900 81.7 33 49.5 60.7 W | 281 9.6 18.6 W | 280 0.00 13.4 0.00 57.5 91.9 19.1
8/19/26 - 1800 86.5 24 46.0 60.0 W | 281 8.3 19.1 WNW | 284 0.00 13.2 0.00 57.5 91.9 19.1
8/19/26 - 1700 89.1 23 46.2 60.6 W | 268 7.7 17.3 WNW | 286 0.00 13.3 0.00 57.5 91.9 17.3
8/19/26 - 1600 90.9 23 47.7 61.5 WSW | 254 6.0 12.9 WSW | 247 0.00 13.3 0.00 57.5 91.9 12.9
8/19/26 - 1500 88.7 28 51.2 62.8 W | 261 5.0 11.6 WNW | 300 0.00 13.1 0.00 57.5 90.8 12.1
8/19/26 - 1400 86.6 34 54.8 64.4 WSW | 245 5.4 12.1 WNW | 293 0.00 13.4 0.00 57.5 87.5 12.1
8/19/26 - 1300 83.0 38 54.6 63.7 SW | 219 4.3 11.4 S | 180 0.00 13.2 0.00 57.5 86.1 11.4
8/19/26 - 1200 76.9 47 55.1 62.9 SW | 219 4.3 10.7 S | 190 0.00 13.2 0.00 57.5 80.4 10.7
8/19/26 - 1100 71.1 56 54.6 61.2 SW | 216 4.0 10.3 SW | 223 0.00 13.4 0.00 57.5 74.3 10.3
8/19/26 - 1000 66.4 66 54.7 60.0 SSW | 209 3.3 9.2 SSW | 198 0.00 13.4 0.00 57.5 68.7 9.9
8/19/26 - 0900 62.1 78 55.0 58.8 SW | 217 2.3 7.5 SW | 230 0.00 13.5 0.00 57.5 65.1 9.9
8/19/26 - 0800 59.9 84 55.2 58.2 SW | 235 2.2 7.2 SSW | 207 0.00 13.7 0.00 57.5 61.9 9.9
8/19/26 - 0700 58.3 89 55.1 57.6 NW | 308 2.4 8.1 WNW | 300 0.00 13.6 0.00 57.5 61.9 9.9
8/19/26 - 0600 57.9 90 54.9 57.4 W | 269 3.3 9.9 WNW | 290 0.00 13.7 0.00 57.5 61.9 9.9
8/19/26 - 0500 58.0 85 53.5 56.4 W | 270 3.0 8.6 W | 275 0.00 13.6 0.00 57.5 61.9 8.6
8/19/26 - 0400 58.7 82 53.2 56.4 WNW | 294 1.7 8.1 NW | 320 0.00 13.8 0.00 58.2 61.9 8.3
8/19/26 - 0300 59.6 79 53.0 56.7 W | 266 1.8 8.3 NW | 305 0.00 13.6 0.00 58.7 61.9 8.3
8/19/26 - 0200 61.0 75 53.0 57.2 WSW | 240 2.4 7.5 WSW | 240 0.00 13.5 0.00 59.4 61.9 7.5
8/19/26 - 0100 61.5 71 52.0 56.8 W | 281 2.4 8.1 WNW | 303 0.00 13.6 0.00 56.1 90.2 18.0
8/19/26 - 0000 63.8 64 51.2 57.0 WNW | 285 1.6 5.0 WSW | 255 0.00 13.6 0.00 56.1 90.2 18.0
8/18/26 - 2300 65.2 61 51.5 57.6 W | 262 2.2 6.8 NNW | 341 0.00 13.5 0.00 56.1 90.2 18.0
8/18/26 - 2200 67.4 59 52.8 59.1 WSW | 258 2.5 10.1 WSW | 239 0.00 13.6 0.00 56.1 90.2 18.0
8/18/26 - 2100 71.0 54 53.7 60.6 W | 263 5.5 15.6 WNW | 303 0.00 13.4 0.00 56.1 90.2 18.0
8/18/26 - 2000 76.0 45 52.8 61.3 W | 279 8.2 18.0 W | 262 0.00 13.6 0.00 56.1 90.2 18.0
8/18/26 - 1900 82.5 33 50.2 61.3 W | 281 7.3 16.7 WSW | 254 0.00 13.3 0.00 56.1 90.2 18.0
8/18/26 - 1800 85.1 28 48.0 60.7 W | 276 7.2 18.0 WNW | 292 0.00 13.3 0.00 56.1 90.2 18.0
8/18/26 - 1700 88.3 25 47.6 61.0 W | 266 5.6 12.9 SW | 217 0.00 13.2 0.00 56.1 90.2 12.9
8/18/26 - 1600 89.5 24 48.1 61.5 SW | 219 4.7 10.7 WSW | 241 0.00 13.3 0.00 56.1 90.2 12.7
8/18/26 - 1500 85.7 33 52.9 63.2 WSW | 238 5.0 12.1 SSW | 208 0.00 13.2 0.00 56.1 87.8 12.7
8/18/26 - 1400 83.3 36 53.6 63.2 SW | 228 4.1 11.2 WSW | 242 0.00 13.3 0.00 56.1 85.7 12.7
8/18/26 - 1300 78.9 41 53.3 62.2 SW | 227 4.3 12.7 SSW | 208 0.00 13.3 0.00 56.1 81.5 12.7
8/18/26 - 1200 73.6 49 53.4 61.1 WSW | 240 4.0 10.7 WNW | 288 0.00 13.4 0.00 56.1 75.9 10.7
8/18/26 - 1100 68.5 58 53.1 59.6 SW | 226 3.9 9.4 SW | 232 0.00 13.5 0.00 56.1 71.8 10.5
8/18/26 - 1000 63.2 69 53.0 58.0 SW | 231 3.6 9.4 SSW | 213 0.00 13.6 0.00 56.1 65.4 10.5
8/18/26 - 0900 59.6 80 53.5 57.0 SW | 230 3.2 7.9 WSW | 237 0.00 13.5 0.00 56.1 60.7 10.5
8/18/26 - 0800 57.4 86 53.2 56.0 W | 270 3.2 9.2 WNW | 289 0.00 13.7 0.00 56.1 58.9 10.5
8/18/26 - 0700 57.7 85 53.3 56.2 SW | 234 3.4 10.1 WNW | 291 0.00 13.7 0.00 56.1 58.3 10.5
8/18/26 - 0600 57.9 86 53.9 56.6 W | 273 2.5 6.6 W | 266 0.00 13.7 0.00 56.1 58.3 10.5
8/18/26 - 0500 57.5 88 54.1 56.6 WSW | 254 4.3 9.2 WNW | 297 0.00 13.6 0.00 56.1 58.2 10.5
8/18/26 - 0400 57.4 88 54.0 56.5 WSW | 249 3.6 10.5 WNW | 282 0.00 13.7 0.00 56.1 58.2 10.5
8/18/26 - 0300 56.4 87 52.6 55.2 WNW | 284 2.9 8.8 NW | 307 0.00 13.8 0.00 56.1 58.2 8.8
8/18/26 - 0200 57.7 81 51.9 55.3 WSW | 243 1.0 6.6 WNW | 288 0.00 13.6 0.00 57.0 58.2 6.6
8/18/26 - 0100 57.0 84 52.1 55.1 NW | 306 2.1 8.1 NNW | 344 0.00 13.7 0.00 56.1 84.7 16.4
8/18/26 - 0000 57.7 84 52.8 55.9 WNW | 291 4.0 11.6 W | 276 0.00 13.6 0.00 57.4 84.7 16.4
8/17/26 - 2300 59.2 81 53.2 56.7 WNW | 289 4.8 14.9 WNW | 303 0.00 13.7 0.00 58.0 84.7 16.4
8/17/26 - 2200 63.2 67 52.1 57.4 W | 277 4.6 13.8 W | 261 0.00 13.6 0.00 58.4 84.7 16.4
8/17/26 - 2100 68.2 57 52.3 59.0 W | 271 4.5 12.5 WSW | 251 0.00 13.4 0.00 58.4 84.7 16.4
8/17/26 - 2000 73.9 43 50.0 59.3 WNW | 290 6.6 16.2 W | 272 0.00 13.5 0.00 58.4 84.7 16.4
8/17/26 - 1900 80.5 31 47.3 59.4 WNW | 284 6.8 14.5 WNW | 292 0.00 13.3 0.00 58.4 84.7 16.4
8/17/26 - 1800 82.7 28 46.0 59.3 W | 273 7.9 15.6 W | 273 0.00 13.4 0.00 58.4 84.7 16.4
8/17/26 - 1700 83.0 31 49.3 60.9 WSW | 258 7.5 16.4 SW | 234 0.00 13.4 0.00 58.4 84.7 16.4
8/17/26 - 1600 81.6 35 51.5 61.7 WNW | 283 7.6 15.1 WNW | 284 0.00 13.3 0.00 58.4 83.6 15.6
8/17/26 - 1500 82.0 35 51.4 61.8 W | 270 7.3 15.6 WNW | 282 0.00 13.2 0.00 58.4 83.6 15.6
8/17/26 - 1400 80.4 39 53.1 62.4 W | 268 7.1 14.9 WNW | 283 0.00 13.4 0.00 58.4 81.2 14.9
8/17/26 - 1300 77.5 46 54.9 62.9 W | 263 5.1 12.3 WNW | 291 0.00 13.5 0.00 58.4 81.0 12.3
8/17/26 - 1200 73.8 52 55.0 62.2 WSW | 253 4.7 11.8 WNW | 290 0.00 13.3 0.00 58.4 74.7 11.8
8/17/26 - 1100 70.0 59 55.0 61.2 SW | 229 3.9 10.3 WSW | 243 0.00 13.5 0.00 58.4 72.7 11.4
8/17/26 - 1000 65.6 70 55.6 60.4 WSW | 237 4.0 11.0 SW | 232 0.00 13.4 0.00 58.4 67.5 11.4
8/17/26 - 0900 61.4 80 55.3 58.9 WSW | 252 2.9 8.1 SW | 233 0.00 13.6 0.00 58.4 65.6 11.4
8/17/26 - 0800 60.1 83 55.0 58.2 W | 267 3.1 7.2 W | 262 0.00 13.6 0.00 58.4 65.6 11.4
8/17/26 - 0700 58.9 85 54.4 57.4 WNW | 297 2.7 10.3 WNW | 282 0.00 13.7 0.00 58.4 65.6 11.4
8/17/26 - 0600 59.7 81 54.0 57.4 WSW | 257 4.2 11.4 NNW | 331 0.00 13.6 0.00 58.9 65.6 11.4
8/17/26 - 0500 60.9 77 53.6 57.6 WSW | 240 2.7 7.7 SW | 226 0.00 13.7 0.00 60.6 65.6 7.7
8/17/26 - 0400 61.8 73 53.0 57.4 SW | 230 1.8 7.0 SW | 223 0.00 13.6 0.00 61.1 65.6 7.0
8/17/26 - 0300 63.1 68 52.4 57.5 WSW | 248 1.8 5.5 SSW | 194 0.00 13.6 0.00 62.0 65.6 5.5
8/17/26 - 0200 64.7 62 51.4 57.4 WSW | 253 1.3 5.5 NW | 318 0.00 13.5 0.00 64.2 65.6 5.5
8/17/26 - 0100 66.0 57 50.5 57.3 WSW | 256 2.8 8.8 WSW | 238 0.00 13.5 0.00 57.0 88.5 16.2
8/17/26 - 0000 67.4 53 49.6 57.2 WNW | 293 3.5 9.2 NNW | 327 0.00 13.5 0.00 57.0 88.5 16.2
8/16/26 - 2300 69.6 48 49.1 57.6 W | 278 1.2 6.8 NNW | 335 0.00 13.5 0.00 57.0 88.5 16.2
8/16/26 - 2200 71.4 47 50.2 58.7 W | 270 3.5 10.5 WNW | 282 0.00 13.4 0.00 57.0 88.5 16.2
8/16/26 - 2100 73.3 44 50.4 59.3 WNW | 287 4.7 10.3 W | 280 0.00 13.6 0.00 57.0 88.5 16.2
8/16/26 - 2000 77.3 37 49.1 59.6 W | 273 5.8 13.6 WNW | 282 0.00 13.5 0.00 57.0 88.5 16.2
8/16/26 - 1900 80.0 36 50.8 61.1 W | 264 6.2 15.6 W | 264 0.00 13.5 0.00 57.0 88.5 16.2
8/16/26 - 1800 82.9 35 52.4 62.4 W | 269 6.6 14.2 W | 274 0.00 13.5 0.00 57.0 88.5 16.2
8/16/26 - 1700 85.2 33 53.0 63.2 WSW | 256 6.1 12.1 SSW | 207 0.00 13.3 0.00 57.0 88.5 16.2
8/16/26 - 1600 86.7 32 53.0 63.4 WSW | 239 7.0 16.2 WSW | 248 0.00 13.2 0.00 57.0 88.5 16.2
8/16/26 - 1500 86.1 32 53.0 63.3 SW | 219 4.8 11.0 SW | 231 0.00 13.2 0.00 57.0 88.2 11.0
8/16/26 - 1400 82.9 37 53.6 63.1 SSW | 212 4.0 10.1 S | 190 0.00 13.4 0.00 57.0 85.0 10.5
8/16/26 - 1300 77.2 47 55.4 63.2 SSW | 207 2.9 9.4 SSW | 202 0.00 13.4 0.00 57.0 80.5 10.5
8/16/26 - 1200 70.8 58 55.3 61.6 SSW | 207 4.0 9.9 S | 180 0.00 13.4 0.00 57.0 73.6 10.5
8/16/26 - 1100 65.5 69 54.9 59.9 SSW | 212 3.0 7.0 SSW | 197 0.00 13.6 0.00 57.0 67.9 10.5
8/16/26 - 1000 60.7 80 54.7 58.2 WSW | 237 3.0 8.3 SSW | 205 0.00 13.6 0.00 57.0 62.2 10.5
8/16/26 - 0900 59.0 84 54.3 57.3 W | 270 2.6 8.6 WSW | 242 0.00 13.7 0.00 57.0 59.9 10.5
8/16/26 - 0800 58.7 85 54.2 57.1 SSW | 197 1.7 6.1 S | 187 0.00 13.7 0.00 57.0 59.9 10.5
8/16/26 - 0700 57.8 88 54.4 57.0 W | 265 1.9 5.7 WNW | 282 0.00 13.7 0.00 57.0 59.9 10.5
8/16/26 - 0600 57.1 90 54.2 56.6 W | 277 4.1 10.5 WSW | 243 0.00 13.7 0.00 57.0 59.9 10.5
8/16/26 - 0500 57.9 88 54.3 56.9 W | 267 3.7 9.6 WNW | 284 0.00 13.6 0.00 57.2 59.9 9.6
8/16/26 - 0400 58.1 88 54.5 57.2 W | 269 3.0 7.2 WNW | 301 0.00 13.6 0.00 57.8 59.9 7.9
8/16/26 - 0300 58.5 87 54.6 57.4 WSW | 255 3.6 7.9 SW | 228 0.00 13.7 0.00 57.9 59.9 7.9
8/16/26 - 0200 59.2 85 54.9 57.8 WSW | 249 2.2 6.1 WNW | 282 0.00 13.5 0.00 58.6 59.9 6.1
8/16/26 - 0100 57.7 89 54.6 57.1 W | 277 4.4 10.3 W | 268 0.00 13.6 0.00 57.5 76.5 16.7
8/16/26 - 0000 57.9 86 53.8 56.6 W | 266 3.2 9.6 W | 267 0.00 13.6 0.00 57.5 76.5 16.7
8/15/26 - 2300 58.7 83 53.7 56.8 WNW | 286 3.3 9.9 WNW | 289 0.00 13.7 0.00 57.9 76.5 16.7
8/15/26 - 2200 60.5 79 53.8 57.6 WNW | 296 1.6 9.9 W | 280 0.00 13.5 0.00 57.9 76.5 16.7
8/15/26 - 2100 61.9 74 53.7 58.0 WNW | 289 5.4 14.9 WNW | 285 0.00 13.7 0.00 57.9 76.5 16.7
8/15/26 - 2000 66.2 63 53.3 59.0 WNW | 282 7.1 14.2 WNW | 299 0.00 13.5 0.00 57.9 76.5 16.7
8/15/26 - 1900 70.7 54 53.2 60.3 W | 276 7.2 16.7 W | 278 0.00 13.6 0.00 57.9 76.5 16.7
8/15/26 - 1800 73.8 50 53.8 61.4 W | 261 7.2 16.0 WSW | 241 0.00 13.4 0.00 57.9 76.5 16.7
8/15/26 - 1700 75.3 46 53.0 61.2 W | 262 8.0 16.0 WSW | 250 0.00 13.5 0.00 57.9 76.5 16.7
8/15/26 - 1600 75.4 45 52.6 61.1 W | 260 7.7 16.7 W | 272 0.00 13.5 0.00 57.9 76.5 16.7
8/15/26 - 1500 73.9 49 53.5 61.3 W | 274 5.9 14.7 WSW | 258 0.00 13.5 0.00 57.9 75.5 16.2
8/15/26 - 1400 71.7 53 53.4 60.7 W | 260 6.3 14.7 SW | 224 0.00 13.5 0.00 57.9 73.4 16.2
8/15/26 - 1300 68.4 59 53.6 59.9 W | 263 6.1 15.6 W | 279 0.00 13.4 0.00 57.9 70.1 16.2
8/15/26 - 1200 64.1 70 54.0 58.9 W | 266 6.4 16.2 WNW | 299 0.00 13.6 0.00 57.9 66.0 16.2
8/15/26 - 1100 61.6 75 53.6 57.8 W | 263 5.7 11.8 SW | 214 0.00 13.6 0.00 57.9 63.5 12.9
8/15/26 - 1000 60.0 78 53.2 57.0 WSW | 258 5.5 12.9 WNW | 290 0.00 13.7 0.00 57.9 61.0 12.9
8/15/26 - 0900 59.3 80 53.2 56.7 WSW | 255 5.0 11.4 WNW | 290 0.00 13.6 0.00 57.9 60.1 12.5
8/15/26 - 0800 58.6 82 53.2 56.5 W | 271 5.2 11.0 WNW | 284 0.00 13.6 0.00 57.9 60.1 12.5
8/15/26 - 0700 58.1 86 53.9 56.8 WNW | 282 4.6 12.3 WNW | 289 0.00 13.7 0.00 57.9 60.1 12.5
8/15/26 - 0600 59.1 84 54.3 57.4 WSW | 249 4.2 9.2 SW | 231 0.00 13.7 0.00 58.3 60.1 12.5
8/15/26 - 0500 59.4 82 53.8 57.2 SW | 236 3.9 10.1 SW | 218 0.00 13.7 0.00 59.0 60.1 12.5
8/15/26 - 0400 59.2 81 53.3 56.7 WSW | 256 5.1 11.6 W | 262 0.00 13.6 0.00 59.0 60.1 12.5
8/15/26 - 0300 59.7 80 53.6 57.1 WSW | 244 4.8 10.3 SW | 220 0.00 13.7 0.00 59.0 60.1 12.5
8/15/26 - 0200 59.5 82 54.0 57.4 WSW | 258 4.7 12.5 W | 273 0.00 13.6 0.00 59.0 60.1 12.5
8/15/26 - 0100 59.4 83 54.2 57.4 W | 268 5.8 12.9 WNW | 295 0.00 13.8 0.00 59.0 73.5 21.0
8/15/26 - 0000 59.7 82 54.1 57.4 WSW | 257 4.4 11.2 WNW | 293 0.00 13.7 0.00 59.1 73.5 21.0
8/14/26 - 2300 59.4 81 53.7 57.1 WSW | 252 6.4 14.0 W | 274 0.00 13.6 0.00 59.1 73.5 21.0
8/14/26 - 2200 60.1 80 54.0 57.5 WSW | 258 7.0 16.9 W | 275 0.00 13.7 0.00 59.4 73.5 21.0
8/14/26 - 2100 60.6 79 54.0 57.8 W | 266 7.8 18.6 WNW | 283 0.00 13.6 0.00 59.8 73.5 21.0
8/14/26 - 2000 63.4 71 53.8 58.5 W | 264 8.7 18.2 W | 278 0.00 13.5 0.00 59.8 73.5 21.0
8/14/26 - 1900 67.3 61 53.6 59.6 W | 263 9.5 20.2 WNW | 284 0.00 13.5 0.00 59.8 73.5 21.0
8/14/26 - 1800 70.5 55 53.8 60.6 W | 262 9.3 21.0 WNW | 289 0.00 13.4 0.00 59.8 73.5 21.0
8/14/26 - 1700 72.3 52 53.6 60.9 W | 259 8.5 18.6 WSW | 252 0.00 13.5 0.00 59.8 73.5 20.0
8/14/26 - 1600 71.4 53 53.4 60.6 W | 280 8.8 18.8 WNW | 292 0.00 13.4 0.00 59.8 73.5 20.0
8/14/26 - 1500 71.7 53 54.0 61.0 W | 263 8.1 20.0 WSW | 239 0.00 13.3 0.00 59.8 73.5 20.0
8/14/26 - 1400 71.9 52 53.4 60.7 W | 276 6.6 17.8 SW | 224 0.00 13.4 0.00 59.8 73.5 18.2
8/14/26 - 1300 71.9 51 52.8 60.3 SW | 228 5.4 12.3 SW | 218 0.00 13.4 0.00 59.8 73.5 18.2
8/14/26 - 1200 69.0 57 52.9 59.6 SSW | 211 6.3 16.4 S | 184 0.00 13.5 0.00 59.8 70.8 18.2
8/14/26 - 1100 67.0 61 52.9 59.0 SSW | 208 5.8 14.5 S | 174 0.00 13.5 0.00 59.8 68.4 18.2
8/14/26 - 1000 64.1 66 52.5 57.9 SSW | 212 6.2 15.1 SW | 230 0.00 13.6 0.00 59.8 65.9 18.2
8/14/26 - 0900 62.3 70 52.4 57.2 SW | 223 6.3 13.4 SW | 234 0.00 13.5 0.00 59.8 63.1 18.2
8/14/26 - 0800 61.4 73 52.8 57.2 SW | 236 4.0 10.7 SSW | 199 0.00 13.6 0.00 59.8 61.9 18.2
8/14/26 - 0700 60.1 79 53.5 57.2 W | 274 4.8 11.0 WNW | 300 0.00 13.6 0.00 59.8 61.0 18.2
8/14/26 - 0600 60.5 76 53.0 57.0 W | 259 5.4 12.1 SW | 218 0.00 13.6 0.00 59.8 61.0 18.2
8/14/26 - 0500 60.7 75 52.8 57.0 WSW | 247 5.5 15.6 SW | 235 0.00 13.7 0.00 59.8 61.0 18.2
8/14/26 - 0400 60.6 77 53.4 57.3 WSW | 248 5.6 15.1 WSW | 250 0.00 13.6 0.00 59.8 60.9 18.2
8/14/26 - 0300 60.6 77 53.5 57.4 WSW | 237 5.9 14.0 WSW | 246 0.00 13.7 0.00 59.8 60.8 18.2
8/14/26 - 0200 60.2 79 53.6 57.3 W | 261 7.7 18.2 WNW | 297 0.00 13.6 0.00 59.8 60.4 18.2
8/14/26 - 0100 59.7 81 53.7 57.2 W | 260 7.5 17.3 W | 277 0.00 13.7 0.00 57.4 76.4 23.7
8/14/26 - 0000 59.1 81 53.5 56.8 W | 268 8.1 21.7 W | 279 0.00 13.7 0.00 57.4 76.4 23.7
8/13/26 - 2300 59.1 81 53.3 56.7 W | 271 8.5 19.7 W | 259 0.00 13.6 0.00 57.4 76.4 23.7
8/13/26 - 2200 59.6 81 53.8 57.2 W | 273 7.4 18.2 WNW | 285 0.00 13.5 0.00 57.4 76.4 23.7
8/13/26 - 2100 61.5 77 54.0 58.0 W | 273 8.7 21.3 W | 279 0.00 13.7 0.00 57.4 76.4 23.7
8/13/26 - 2000 64.6 68 53.7 58.8 WNW | 282 9.6 22.8 NW | 312 0.00 13.6 0.00 57.4 76.4 23.7
8/13/26 - 1900 68.0 60 53.6 59.8 W | 276 11.1 23.7 W | 279 0.00 13.5 0.00 57.4 76.4 23.7
8/13/26 - 1800 70.5 55 53.6 60.4 W | 279 10.0 23.2 WNW | 302 0.00 13.4 0.00 57.4 76.4 23.2
8/13/26 - 1700 72.2 53 54.0 61.2 WNW | 289 9.6 22.1 W | 272 0.00 13.4 0.00 57.4 76.4 22.1
8/13/26 - 1600 72.9 53 54.7 61.7 W | 274 10.5 22.1 WNW | 290 0.00 13.4 0.00 57.4 76.4 22.1
8/13/26 - 1500 73.9 52 55.0 62.2 W | 273 10.6 21.3 WSW | 254 0.00 13.4 0.00 57.4 76.4 21.7
8/13/26 - 1400 75.3 46 53.4 61.5 SW | 229 9.0 19.1 W | 265 0.00 13.4 0.00 57.4 76.4 21.7
8/13/26 - 1300 74.2 47 52.6 60.8 SW | 220 8.9 21.7 WSW | 237 0.00 13.5 0.00 57.4 75.5 21.7
8/13/26 - 1200 72.4 48 51.8 59.9 SW | 222 9.2 21.5 SW | 232 0.00 13.5 0.00 57.4 73.6 21.5
8/13/26 - 1100 70.0 52 51.4 59.0 SW | 224 7.9 19.7 SW | 215 0.00 13.4 0.00 57.4 71.3 19.7
8/13/26 - 1000 67.4 57 51.7 58.4 SW | 226 5.2 13.4 WSW | 242 0.00 13.4 0.00 57.4 69.2 18.2
8/13/26 - 0900 63.5 66 51.9 57.3 SW | 221 7.1 18.2 SW | 221 0.00 13.6 0.00 57.4 65.8 18.2
8/13/26 - 0800 60.7 74 52.3 56.6 WSW | 256 4.8 11.8 WNW | 286 0.00 13.7 0.00 57.4 62.5 15.8
8/13/26 - 0700 57.9 82 52.4 55.7 NW | 314 4.9 11.2 W | 277 0.00 13.8 0.00 57.4 58.8 15.8
8/13/26 - 0600 58.0 81 52.2 55.6 NW | 310 4.8 9.4 NNW | 327 0.00 13.6 0.00 57.4 58.7 15.8
8/13/26 - 0500 58.4 82 53.0 56.3 WNW | 283 4.5 11.2 WNW | 295 0.00 13.6 0.00 58.0 58.6 15.8
8/13/26 - 0400 58.2 84 53.6 56.6 NW | 310 4.9 12.1 NW | 312 0.00 13.6 0.00 58.0 58.4 15.8
8/13/26 - 0300 58.2 85 53.7 56.6 NW | 309 5.6 13.2 W | 277 0.00 13.7 0.00 58.0 58.3 15.8
8/13/26 - 0200 58.0 85 53.5 56.5 WNW | 302 6.4 15.8 W | 279 0.00 13.8 0.00 58.0 58.1 15.8
8/13/26 - 0100 58.3 82 53.0 56.2 NW | 311 7.9 15.8 WNW | 293 0.00 13.7 0.00 56.6 87.0 24.1
8/13/26 - 0000 59.4 78 52.7 56.4 NW | 314 6.8 14.7 WNW | 297 0.00 13.8 0.00 56.6 87.0 24.1
8/12/26 - 2300 59.6 79 53.2 56.8 WNW | 302 7.6 20.0 WNW | 295 0.00 13.6 0.00 56.6 87.0 24.1
8/12/26 - 2200 62.0 72 53.0 57.6 NW | 306 7.1 18.4 NNW | 338 0.00 13.5 0.00 56.6 87.0 24.1
8/12/26 - 2100 65.1 63 52.1 58.0 NW | 310 7.9 20.6 NW | 307 0.00 13.5 0.00 56.6 87.0 24.1
8/12/26 - 2000 70.0 53 51.8 59.2 NW | 307 8.7 17.8 W | 274 0.00 13.5 0.00 56.6 87.0 24.1
8/12/26 - 1900 74.8 45 51.9 60.5 WNW | 290 8.2 17.8 NW | 305 0.00 13.4 0.00 56.6 87.0 24.1
8/12/26 - 1800 76.4 44 52.8 61.4 W | 280 10.7 24.1 NW | 317 0.00 13.3 0.00 56.6 87.0 24.1
8/12/26 - 1700 79.9 39 52.5 62.0 W | 273 10.2 21.7 WNW | 284 0.00 13.4 0.00 56.6 87.0 21.7
8/12/26 - 1600 83.4 32 50.4 61.5 W | 269 8.8 19.5 WNW | 292 0.00 13.4 0.00 56.6 87.0 19.5
8/12/26 - 1500 84.8 29 49.4 61.2 W | 263 5.1 12.9 NW | 308 0.00 13.4 0.00 56.6 86.4 12.9
8/12/26 - 1400 83.5 31 50.1 61.4 W | 277 3.6 12.1 SW | 231 0.00 13.3 0.00 56.6 86.0 12.1
8/12/26 - 1300 80.8 36 51.4 61.6 SW | 234 3.6 10.5 WSW | 241 0.00 13.4 0.00 56.6 83.1 11.6
8/12/26 - 1200 75.8 44 52.5 61.1 SSW | 207 4.4 11.6 SSW | 198 0.00 13.4 0.00 56.6 78.1 11.6
8/12/26 - 1100 69.9 55 52.7 59.8 SSW | 203 3.6 7.9 SSW | 208 0.00 13.4 0.00 56.6 73.2 11.6
8/12/26 - 1000 64.6 67 53.4 58.6 SW | 217 2.6 8.1 SSW | 192 0.00 13.5 0.00 56.6 66.6 11.6
8/12/26 - 0900 60.4 78 53.5 57.3 NW | 311 2.0 4.8 NNW | 327 0.00 13.7 0.00 56.6 62.1 11.6
8/12/26 - 0800 59.3 78 52.5 56.3 WSW | 240 0.8 2.8 WSW | 241 0.00 13.6 0.00 56.6 61.2 11.6
8/12/26 - 0700 57.2 80 51.2 54.6 NW | 318 0.7 3.7 WNW | 288 0.00 13.7 0.00 56.6 61.2 11.6
8/12/26 - 0600 58.4 78 51.8 55.5 WNW | 295 0.5 2.0 SW | 217 0.00 13.7 0.00 57.8 61.2 11.6
8/12/26 - 0500 58.5 79 52.1 55.7 W | 272 0.7 6.6 WNW | 298 0.00 13.6 0.00 57.8 61.2 11.6
8/12/26 - 0400 58.2 79 51.8 55.4 WNW | 298 3.0 11.6 NW | 308 0.00 13.7 0.00 57.8 61.2 11.6
8/12/26 - 0300 59.1 76 51.5 55.6 WNW | 283 3.1 9.6 WNW | 296 0.00 13.7 0.00 58.6 61.2 9.6
8/12/26 - 0200 60.8 70 51.1 55.9 W | 264 1.6 5.9 W | 280 0.00 13.7 0.00 60.3 61.2 5.9
8/12/26 - 0100 61.7 68 51.0 56.2 WNW | 291 3.1 9.4 WNW | 299 0.00 13.5 0.00 58.2 89.7 23.0
8/12/26 - 0000 63.2 63 50.4 56.3 W | 273 2.2 6.8 WNW | 290 0.00 13.6 0.00 58.2 89.7 23.0
8/11/26 - 2300 65.4 58 50.3 57.0 SW | 235 2.4 6.6 WSW | 243 0.00 13.5 0.00 58.2 89.7 23.0
8/11/26 - 2200 66.4 56 50.3 57.3 NW | 306 3.9 13.2 NW | 309 0.00 13.5 0.00 58.2 89.7 23.0
8/11/26 - 2100 68.1 53 50.3 57.8 WNW | 292 6.4 17.5 WNW | 295 0.00 13.6 0.00 58.2 89.7 23.0
8/11/26 - 2000 73.0 44 50.0 59.0 W | 280 8.2 18.8 WNW | 284 0.00 13.5 0.00 58.2 89.7 23.0
8/11/26 - 1900 78.0 38 50.2 60.3 WNW | 282 9.9 20.8 W | 279 0.00 13.4 0.00 58.2 89.7 23.0
8/11/26 - 1800 80.2 36 50.9 61.2 WNW | 282 11.0 23.0 WNW | 283 0.00 13.4 0.00 58.2 89.7 23.0
8/11/26 - 1700 82.2 35 51.7 62.0 WNW | 283 10.2 21.7 WNW | 289 0.00 13.2 0.00 58.2 89.7 21.7
8/11/26 - 1600 84.9 32 51.4 62.3 WNW | 282 9.4 19.1 W | 273 0.00 13.3 0.00 58.2 89.7 20.0
8/11/26 - 1500 88.2 22 44.2 59.7 WSW | 246 8.9 20.0 SW | 236 0.00 13.3 0.00 58.2 89.7 20.0
8/11/26 - 1400 86.4 25 45.8 60.0 WSW | 247 6.4 18.8 SW | 222 0.00 13.3 0.00 58.2 89.1 18.8
8/11/26 - 1300 83.2 33 50.8 61.7 SW | 224 3.2 9.0 WNW | 290 0.00 13.2 0.00 58.2 85.6 10.3
8/11/26 - 1200 78.4 40 52.1 61.4 SW | 217 3.1 8.1 S | 191 0.00 13.3 0.00 58.2 81.0 10.3
8/11/26 - 1100 72.7 49 52.6 60.4 SW | 218 3.0 9.0 SSW | 210 0.00 13.4 0.00 58.2 76.4 10.3
8/11/26 - 1000 67.8 60 53.3 59.5 SW | 224 2.2 7.0 SSE | 165 0.00 13.4 0.00 58.2 70.1 10.3
8/11/26 - 0900 63.4 70 53.5 58.3 W | 275 2.9 7.0 WNW | 299 0.00 13.6 0.00 58.2 65.0 10.3
8/11/26 - 0800 61.0 74 52.7 57.0 SW | 221 1.1 4.8 SW | 231 0.00 13.6 0.00 58.2 62.7 10.3
8/11/26 - 0700 58.8 78 51.9 55.7 S | 189 0.2 1.5 SSW | 196 0.00 13.6 0.00 58.2 60.3 10.3
8/11/26 - 0600 58.8 78 52.0 55.8 SW | 228 1.2 4.2 WNW | 282 0.00 13.8 0.00 58.2 60.3 10.3
8/11/26 - 0500 58.5 79 52.0 55.6 WNW | 284 1.3 5.9 W | 276 0.00 13.5 0.00 58.2 60.3 10.3
8/11/26 - 0400 59.0 78 52.2 56.0 WSW | 254 1.1 5.7 WNW | 295 0.00 13.5 0.00 58.5 60.3 10.3
8/11/26 - 0300 58.8 79 52.4 56.0 NW | 305 2.9 10.3 NNW | 347 0.00 13.6 0.00 58.5 60.3 10.3
8/11/26 - 0200 59.0 78 52.3 56.0 WNW | 300 3.9 10.3 WNW | 290 0.00 13.7 0.00 58.5 60.3 10.3
8/11/26 - 0100 61.0 71 51.5 56.3 W | 259 2.1 8.1 WNW | 293 0.00 13.5 0.00 59.7 92.0 19.7
8/11/26 - 0000 62.8 65 51.0 56.5 W | 271 2.2 7.2 NW | 311 0.00 13.6 0.00 59.7 92.0 19.7
8/10/26 - 2300 65.3 60 51.0 57.4 SW | 222 1.0 4.4 S | 186 0.00 13.5 0.00 59.7 92.0 19.7
8/10/26 - 2200 65.5 60 51.2 57.6 W | 271 3.2 13.2 WNW | 294 0.00 13.6 0.00 59.7 92.0 19.7
8/10/26 - 2100 66.9 58 51.4 58.1 WNW | 299 6.4 15.1 WNW | 298 0.00 13.6 0.00 59.7 92.0 19.7
8/10/26 - 2000 72.5 49 52.1 60.0 NW | 309 6.0 16.7 WNW | 290 0.00 13.4 0.00 59.7 92.0 19.7
8/10/26 - 1900 78.3 42 53.2 62.0 WNW | 296 8.1 18.6 WNW | 302 0.00 13.5 0.00 59.7 92.0 19.7
8/10/26 - 1800 82.9 37 53.8 63.2 WNW | 292 8.5 19.7 WNW | 300 0.00 13.3 0.00 59.7 92.0 19.7
8/10/26 - 1700 87.5 32 53.9 64.0 W | 276 9.0 18.6 W | 279 0.00 13.2 0.00 59.7 92.0 18.6
8/10/26 - 1600 90.0 28 52.2 63.5 W | 268 8.6 17.1 WNW | 282 0.00 13.4 0.00 59.7 92.0 17.1
8/10/26 - 1500 90.5 25 49.6 62.2 WSW | 257 7.7 16.7 WSW | 257 0.00 13.3 0.00 59.7 92.0 16.7
8/10/26 - 1400 88.0 28 50.4 62.2 WNW | 285 6.3 15.1 SW | 221 0.00 13.2 0.00 59.7 90.2 15.1
8/10/26 - 1300 85.2 31 51.5 62.4 WSW | 249 5.9 14.9 WNW | 283 0.00 13.2 0.00 59.7 87.0 14.9
8/10/26 - 1200 80.5 39 53.0 62.3 WSW | 242 5.3 14.5 WNW | 293 0.00 13.4 0.00 59.7 82.8 14.5
8/10/26 - 1100 75.4 46 53.4 61.5 WSW | 242 4.9 11.4 WSW | 244 0.00 13.3 0.00 59.7 78.5 11.4
8/10/26 - 1000 70.1 56 53.8 60.4 WSW | 244 5.0 11.2 WSW | 241 0.00 13.5 0.00 59.7 72.1 11.2
8/10/26 - 0900 66.2 65 53.9 59.5 WSW | 255 3.2 7.9 W | 259 0.00 13.6 0.00 59.7 68.5 7.9
8/10/26 - 0800 62.2 75 54.1 58.3 SW | 235 2.5 7.2 SSW | 213 0.00 13.6 0.00 59.7 64.1 7.7
8/10/26 - 0700 60.0 78 53.3 57.1 WSW | 237 1.0 3.7 SSW | 212 0.00 13.7 0.00 59.7 62.6 7.7
8/10/26 - 0600 60.1 77 53.0 56.8 WSW | 243 0.6 3.3 W | 262 0.00 13.5 0.00 59.8 62.6 7.7
8/10/26 - 0500 60.2 77 52.8 56.8 WSW | 253 0.3 5.3 WNW | 300 0.00 13.7 0.00 59.8 62.6 7.7
8/10/26 - 0400 61.0 75 52.9 57.1 W | 272 0.8 6.4 NNW | 348 0.00 13.8 0.00 60.1 62.6 7.7
8/10/26 - 0300 61.1 75 53.2 57.4 WNW | 302 1.2 7.7 NW | 324 0.00 13.5 0.00 60.8 62.6 7.7
8/10/26 - 0200 62.0 71 52.5 57.2 WNW | 292 1.5 7.7 WNW | 296 0.00 13.6 0.00 61.1 62.6 7.7
8/10/26 - 0100 62.5 69 52.3 57.2 W | 272 2.3 8.8 WNW | 285 0.00 13.5 0.00 59.2 96.7 19.1
8/10/26 - 0000 63.8 66 52.4 57.7 W | 274 3.8 12.7 WNW | 300 0.00 13.7 0.00 59.2 96.7 19.1
8/9/26 - 2300 64.9 62 51.7 57.7 WNW | 284 5.4 15.6 WNW | 291 0.00 13.6 0.00 59.2 96.7 19.1
8/9/26 - 2200 68.2 51 49.2 57.2 WNW | 295 5.1 14.9 WNW | 292 0.00 13.6 0.00 59.2 96.7 19.1
8/9/26 - 2100 72.1 43 48.6 58.0 WNW | 303 2.8 14.2 WSW | 248 0.00 13.4 0.00 59.2 96.7 19.1
8/9/26 - 2000 76.5 40 50.3 60.0 WNW | 295 5.7 14.9 W | 273 0.00 13.4 0.00 59.2 96.7 19.1
8/9/26 - 1900 82.9 34 51.6 62.0 WNW | 285 7.9 19.1 W | 281 0.00 13.3 0.00 59.2 96.7 19.1
8/9/26 - 1800 88.3 31 53.6 64.0 W | 268 7.6 16.2 W | 281 0.00 13.3 0.00 59.2 96.7 17.5
8/9/26 - 1700 90.8 26 50.9 62.9 W | 264 8.4 17.5 WNW | 285 0.00 13.2 0.00 59.2 96.7 17.5
8/9/26 - 1600 93.1 24 51.2 63.4 W | 261 7.9 16.9 W | 262 0.00 13.2 0.00 59.2 96.7 16.9
8/9/26 - 1500 95.0 24 52.2 64.1 WSW | 245 5.8 15.8 WNW | 287 0.00 13.1 0.00 59.2 96.7 15.8
8/9/26 - 1400 93.6 24 51.4 63.5 SSW | 212 5.8 15.3 SSW | 197 0.00 13.2 0.00 59.2 95.1 15.3
8/9/26 - 1300 89.8 28 52.1 63.4 SSW | 213 4.6 10.5 S | 191 0.00 13.2 0.00 59.2 92.2 10.5
8/9/26 - 1200 84.6 34 53.2 63.2 SSW | 204 4.1 10.1 S | 175 0.00 13.3 0.00 59.2 86.8 10.1
8/9/26 - 1100 78.1 45 54.6 62.9 SSW | 209 3.9 8.1 SW | 215 0.00 13.3 0.00 59.2 82.1 8.1
8/9/26 - 1000 72.2 55 55.3 62.0 SSW | 204 3.6 7.7 S | 187 0.00 13.3 0.00 59.2 74.6 7.7
8/9/26 - 0900 68.3 62 54.6 60.5 S | 191 1.9 5.9 S | 183 0.00 13.6 0.00 59.2 70.0 7.7
8/9/26 - 0800 62.9 70 53.0 57.8 NE | 42 0.5 2.0 NE | 36 0.00 13.5 0.00 59.2 66.7 7.7
8/9/26 - 0700 59.9 75 52.0 56.2 NE | 50 0.8 2.8 NE | 42 0.00 13.6 0.00 59.2 65.6 7.7
8/9/26 - 0600 60.1 75 52.1 56.3 NE | 49 0.9 2.8 NE | 37 0.00 13.6 0.00 59.6 65.6 7.7
8/9/26 - 0500 61.1 74 52.7 57.0 NE | 47 1.0 2.4 NE | 54 0.00 13.7 0.00 60.8 65.6 7.7
8/9/26 - 0400 62.8 70 53.1 57.9 ENE | 67 0.6 2.2 NE | 44 0.00 13.5 0.00 61.3 65.6 7.7
8/9/26 - 0300 63.7 67 52.6 57.9 W | 273 1.6 4.4 W | 271 0.00 13.5 0.00 63.1 65.6 7.7
8/9/26 - 0200 64.9 64 52.4 58.1 WSW | 247 2.2 7.7 W | 280 0.00 13.6 0.00 64.2 65.6 7.7
8/9/26 - 0100 66.0 61 52.1 58.3 W | 260 2.4 8.8 W | 274 0.00 13.7 0.00 57.1 88.2 18.2
8/9/26 - 0000 68.0 57 52.1 58.9 WSW | 249 1.5 4.4 SW | 218 0.00 13.6 0.00 57.1 88.2 18.2
8/8/26 - 2300 70.2 51 51.2 58.9 WSW | 239 1.3 6.8 W | 272 0.00 13.4 0.00 57.1 88.2 18.2
8/8/26 - 2200 70.8 49 50.6 58.7 WNW | 295 2.8 10.5 WNW | 283 0.00 13.5 0.00 57.1 88.2 18.2
8/8/26 - 2100 73.7 42 49.1 58.7 WNW | 300 2.7 9.2 NW | 316 0.00 13.6 0.00 57.1 88.2 18.2
8/8/26 - 2000 78.4 35 48.5 59.6 WNW | 300 4.1 13.8 WNW | 292 0.00 13.5 0.00 57.1 88.2 18.2
8/8/26 - 1900 80.9 32 48.6 60.2 WNW | 290 7.6 18.2 WNW | 286 0.00 13.3 0.00 57.1 88.2 18.2
8/8/26 - 1800 84.3 31 50.4 61.6 W | 277 8.0 16.0 WNW | 287 0.00 13.2 0.00 57.1 88.2 16.7
8/8/26 - 1700 86.9 25 47.3 60.6 W | 262 7.0 15.3 W | 278 0.00 13.4 0.00 57.1 88.2 16.7
8/8/26 - 1600 87.2 24 46.5 60.4 W | 264 7.4 14.5 WNW | 285 0.00 13.3 0.00 57.1 88.2 16.7
8/8/26 - 1500 86.0 27 48.3 61.0 WSW | 256 7.4 16.7 WSW | 244 0.00 13.3 0.00 57.1 87.0 16.7
8/8/26 - 1400 83.0 36 53.2 63.0 WSW | 255 6.1 12.9 WNW | 282 0.00 13.4 0.00 57.1 85.2 16.0
8/8/26 - 1300 79.6 42 54.7 63.2 WSW | 244 4.6 10.7 WNW | 293 0.00 13.4 0.00 57.1 81.5 16.0
8/8/26 - 1200 75.8 49 55.1 62.6 SW | 221 3.8 11.6 SW | 233 0.00 13.5 0.00 57.1 78.1 16.0
8/8/26 - 1100 69.4 60 55.0 61.0 WSW | 240 3.4 9.2 SW | 229 0.00 13.4 0.00 57.1 73.5 16.0
8/8/26 - 1000 65.1 69 54.8 59.7 SW | 234 3.4 8.8 SW | 234 0.00 13.5 0.00 57.1 66.6 16.0
8/8/26 - 0900 61.9 77 54.7 58.6 W | 271 3.7 8.6 WNW | 295 0.00 13.5 0.00 57.1 64.8 16.0
8/8/26 - 0800 58.6 86 54.4 57.3 WNW | 296 3.2 7.7 WNW | 282 0.00 13.7 0.00 57.1 60.6 16.0
8/8/26 - 0700 57.6 88 53.9 56.5 WNW | 286 2.6 7.5 WNW | 286 0.00 13.7 0.00 57.1 60.6 16.0
8/8/26 - 0600 57.4 88 53.8 56.4 NW | 307 3.8 9.6 WNW | 286 0.00 13.8 0.00 57.1 60.6 16.0
8/8/26 - 0500 57.3 89 54.0 56.5 WNW | 293 4.5 13.8 NW | 318 0.00 13.7 0.00 57.1 60.6 16.0
8/8/26 - 0400 57.4 88 54.0 56.6 WNW | 298 6.8 16.0 NW | 308 0.00 13.6 0.00 57.2 60.6 16.0
8/8/26 - 0300 57.5 88 53.9 56.5 NW | 306 6.5 14.7 NW | 309 0.00 13.5 0.00 57.3 60.6 16.0
8/8/26 - 0200 59.0 82 53.6 56.8 WNW | 301 6.3 16.0 WNW | 289 0.00 13.6 0.00 57.9 60.6 16.0
8/8/26 - 0100 62.3 71 52.7 57.5 WNW | 299 4.3 12.7 WNW | 298 0.00 13.6 0.00 57.5 91.4 18.0
8/8/26 - 0000 65.3 62 51.9 57.9 W | 280 3.6 9.9 WNW | 285 0.00 13.6 0.00 57.5 91.4 18.0
8/7/26 - 2300 67.2 52 48.8 56.7 W | 263 3.5 11.2 W | 279 0.00 13.6 0.00 57.5 91.4 18.0
8/7/26 - 2200 68.8 48 48.1 56.8 W | 260 3.3 12.1 WNW | 282 0.00 13.5 0.00 57.5 91.4 18.0
8/7/26 - 2100 70.8 48 49.9 58.4 NW | 310 5.6 15.3 NW | 312 0.00 13.6 0.00 57.5 91.4 18.0
8/7/26 - 2000 75.6 42 51.1 60.2 NW | 314 6.6 17.8 WNW | 301 0.00 13.5 0.00 57.5 91.4 18.0
8/7/26 - 1900 84.1 29 47.8 60.4 WSW | 247 6.7 15.6 SW | 228 0.00 13.3 0.00 57.5 91.4 18.0
8/7/26 - 1800 88.5 21 43.2 59.3 WSW | 244 6.9 15.8 W | 278 0.00 13.2 0.00 57.5 91.4 18.0
8/7/26 - 1700 88.5 20 42.5 59.0 W | 270 7.7 18.0 W | 281 0.00 13.4 0.00 57.5 91.4 18.0
8/7/26 - 1600 89.3 18 39.9 58.3 WSW | 258 8.3 17.3 W | 259 0.00 13.1 0.00 57.5 91.4 17.3
8/7/26 - 1500 89.0 18 40.3 58.3 WSW | 247 6.5 14.0 SW | 234 0.00 13.4 0.00 57.5 90.8 17.1
8/7/26 - 1400 85.8 19 39.1 57.2 WSW | 252 7.7 16.9 WSW | 252 0.00 13.4 0.00 57.5 87.4 17.1
8/7/26 - 1300 81.3 28 44.8 58.6 WSW | 248 7.6 17.1 SW | 216 0.00 13.2 0.00 57.5 83.4 17.1
8/7/26 - 1200 76.8 43 52.5 61.3 WSW | 248 5.7 13.4 SW | 232 0.00 13.4 0.00 57.5 79.6 13.4
8/7/26 - 1100 72.0 55 54.7 61.5 SW | 217 4.4 9.6 S | 187 0.00 13.3 0.00 57.5 75.1 12.3
8/7/26 - 1000 67.0 65 55.0 60.4 SW | 227 3.0 9.0 SW | 218 0.00 13.4 0.00 57.5 69.6 12.3
8/7/26 - 0900 62.8 76 55.0 59.1 WSW | 250 3.1 8.6 WNW | 302 0.00 13.5 0.00 57.5 64.7 12.3
8/7/26 - 0800 58.6 86 54.4 57.3 WNW | 292 4.6 11.8 W | 266 0.00 13.7 0.00 57.5 63.6 12.3
8/7/26 - 0700 57.8 87 54.0 56.7 WNW | 283 4.6 12.3 WNW | 295 0.00 13.8 0.00 57.5 63.6 12.3
8/7/26 - 0600 58.2 86 53.9 56.8 WNW | 292 4.2 9.9 WNW | 301 0.00 13.7 0.00 57.8 63.6 10.5
8/7/26 - 0500 59.5 81 53.7 57.1 WNW | 290 4.2 9.9 WNW | 289 0.00 13.6 0.00 58.8 63.6 10.5
8/7/26 - 0400 60.6 76 52.9 57.0 WNW | 289 4.2 10.5 WNW | 300 0.00 13.6 0.00 60.1 63.6 10.5
8/7/26 - 0300 61.2 73 52.6 57.0 WNW | 294 3.4 9.9 WNW | 292 0.00 13.6 0.00 60.8 63.6 9.9
8/7/26 - 0200 62.5 69 52.3 57.3 WSW | 243 2.8 7.2 SSW | 213 0.00 13.6 0.00 61.0 63.6 7.2
8/7/26 - 0100 64.2 66 52.5 57.9 SW | 227 1.9 5.9 SW | 222 0.00 13.7 0.00 57.1 87.7 21.7
8/7/26 - 0000 65.6 63 52.5 58.4 S | 190 0.9 3.7 W | 275 0.00 13.6 0.00 57.1 87.7 21.7
8/6/26 - 2300 65.2 64 52.8 58.4 W | 273 2.5 9.0 W | 276 0.00 13.6 0.00 57.1 87.7 21.7
8/6/26 - 2200 66.5 63 53.3 59.2 WNW | 301 4.0 14.2 WNW | 299 0.00 13.6 0.00 57.1 87.7 21.7
8/6/26 - 2100 70.0 56 53.5 60.2 W | 280 6.1 16.0 W | 273 0.00 13.6 0.00 57.1 87.7 21.7
8/6/26 - 2000 75.3 48 54.1 62.0 WNW | 299 7.3 15.8 WNW | 297 0.00 13.4 0.00 57.1 87.7 21.7
8/6/26 - 1900 77.8 45 54.6 62.7 W | 277 9.6 19.3 WNW | 294 0.00 13.3 0.00 57.1 87.7 21.7
8/6/26 - 1800 81.4 41 55.1 63.7 W | 273 10.4 21.7 W | 280 0.00 13.3 0.00 57.1 87.7 21.7
8/6/26 - 1700 86.4 33 54.3 64.1 W | 264 7.2 17.8 W | 278 0.00 13.4 0.00 57.1 87.7 17.8
8/6/26 - 1600 86.4 33 54.0 63.9 W | 272 7.5 15.8 W | 267 0.00 13.3 0.00 57.1 87.7 16.4
8/6/26 - 1500 86.1 33 53.3 63.5 W | 263 6.6 16.4 W | 270 0.00 13.2 0.00 57.1 87.0 16.4
8/6/26 - 1400 85.1 33 53.2 63.3 WSW | 242 5.0 12.5 WSW | 252 0.00 13.4 0.00 57.1 86.4 12.5
8/6/26 - 1300 81.3 39 54.3 63.2 SW | 215 5.1 10.5 S | 185 0.00 13.3 0.00 57.1 84.2 12.5
8/6/26 - 1200 76.8 47 55.0 62.8 SSW | 210 4.4 11.2 S | 190 0.00 13.5 0.00 57.1 79.4 12.5
8/6/26 - 1100 71.4 56 54.8 61.5 SSW | 213 3.6 9.2 SSW | 194 0.00 13.3 0.00 57.1 73.9 12.5
8/6/26 - 1000 66.6 67 55.2 60.4 SW | 233 3.1 8.3 SW | 234 0.00 13.5 0.00 57.1 69.4 12.5
8/6/26 - 0900 62.1 79 55.5 59.2 WSW | 258 3.7 9.9 WSW | 239 0.00 13.6 0.00 57.1 63.9 12.5
8/6/26 - 0800 59.2 86 55.1 58.0 W | 270 3.9 8.3 NW | 315 0.00 13.6 0.00 57.1 60.5 12.5
8/6/26 - 0700 57.7 88 54.3 56.9 NW | 314 3.5 7.7 NW | 314 0.00 13.7 0.00 57.1 59.9 12.5
8/6/26 - 0600 57.8 86 53.6 56.4 NNW | 346 1.1 6.4 NW | 308 0.00 13.8 0.00 57.3 59.9 12.5
8/6/26 - 0500 57.8 85 53.4 56.3 NW | 315 1.5 7.9 WNW | 296 0.00 13.5 0.00 57.3 59.9 12.5
8/6/26 - 0400 58.5 83 53.4 56.5 W | 259 1.9 7.0 WNW | 291 0.00 13.5 0.00 57.9 59.9 12.5
8/6/26 - 0300 58.2 83 53.2 56.4 WNW | 296 3.5 9.0 WNW | 295 0.00 13.6 0.00 57.9 59.9 12.5
8/6/26 - 0200 58.7 82 53.2 56.5 NW | 307 4.8 12.5 NW | 308 0.00 13.6 0.00 58.3 59.9 12.5
8/6/26 - 0100 60.6 76 53.0 57.0 W | 273 3.2 8.8 WSW | 251 0.00 13.5 0.00 57.6 90.2 17.8
8/6/26 - 0000 62.2 72 53.0 57.6 W | 272 3.4 11.2 W | 281 0.00 13.6 0.00 57.6 90.2 17.8
8/5/26 - 2300 64.7 66 53.0 58.4 WSW | 244 1.9 8.3 W | 278 0.00 13.5 0.00 57.6 90.2 17.8
8/5/26 - 2200 66.0 64 53.3 59.0 W | 269 3.6 9.9 NW | 319 0.00 13.6 0.00 57.6 90.2 17.8
8/5/26 - 2100 70.0 56 53.7 60.4 NW | 314 5.5 12.7 WNW | 288 0.00 13.6 0.00 57.6 90.2 17.8
8/5/26 - 2000 75.9 47 54.2 62.1 WNW | 286 7.7 17.8 W | 278 0.00 13.4 0.00 57.6 90.2 17.8
8/5/26 - 1900 82.5 38 54.1 63.3 W | 273 7.0 15.1 WNW | 284 0.00 13.3 0.00 57.6 90.2 17.3
8/5/26 - 1800 87.0 32 53.8 63.9 W | 264 8.2 17.3 W | 277 0.00 13.2 0.00 57.6 90.2 17.3
8/5/26 - 1700 88.5 29 51.9 63.1 W | 265 6.8 15.3 WNW | 286 0.00 13.3 0.00 57.6 90.2 16.0
8/5/26 - 1600 88.5 27 50.3 62.3 W | 264 7.6 16.0 WNW | 286 0.00 13.3 0.00 57.6 89.5 16.0
8/5/26 - 1500 87.3 28 50.5 62.2 W | 262 5.9 14.5 WSW | 249 0.00 13.3 0.00 57.6 88.9 14.5
8/5/26 - 1400 85.2 32 51.7 62.5 WSW | 242 5.4 11.8 SW | 217 0.00 13.2 0.00 57.6 86.5 12.3
8/5/26 - 1300 81.4 38 53.5 62.8 SW | 226 4.0 11.0 WSW | 238 0.00 13.4 0.00 57.6 84.1 12.3
8/5/26 - 1200 76.5 46 54.3 62.3 SW | 233 3.8 10.3 WNW | 287 0.00 13.3 0.00 57.6 78.4 12.3
8/5/26 - 1100 71.3 56 54.8 61.4 WSW | 244 3.4 9.9 WSW | 241 0.00 13.3 0.00 57.6 73.5 12.3
8/5/26 - 1000 66.7 66 55.1 60.4 WSW | 251 4.3 10.7 WNW | 290 0.00 13.4 0.00 57.6 68.4 12.3
8/5/26 - 0900 63.3 75 55.2 59.4 WSW | 244 3.6 9.4 W | 271 0.00 13.6 0.00 57.6 64.7 12.3
8/5/26 - 0800 60.1 83 54.9 58.1 WSW | 249 2.4 8.1 W | 277 0.00 13.6 0.00 57.6 61.6 12.3
8/5/26 - 0700 58.0 86 54.0 56.7 WNW | 298 2.7 9.0 NW | 326 0.00 13.6 0.00 57.6 61.6 12.3
8/5/26 - 0600 58.3 87 54.3 57.1 WNW | 288 4.0 12.3 W | 276 0.00 13.6 0.00 58.1 61.6 12.3
8/5/26 - 0500 58.2 87 54.5 57.2 WNW | 299 3.7 10.1 WNW | 295 0.00 13.7 0.00 58.1 61.6 10.1
8/5/26 - 0400 58.7 85 54.1 57.1 NW | 306 2.1 6.8 WNW | 302 0.00 13.6 0.00 58.1 61.6 8.3
8/5/26 - 0300 59.3 83 54.0 57.2 NW | 305 2.4 8.3 WNW | 299 0.00 13.6 0.00 58.8 61.6 8.3
8/5/26 - 0200 60.7 78 53.7 57.5 W | 274 1.6 8.1 WNW | 300 0.00 13.6 0.00 60.0 61.6 8.1
8/5/26 - 0100 61.8 75 53.7 57.9 W | 277 2.5 10.1 NW | 312 0.00 13.6 0.00 61.5 94.3 19.3
8/5/26 - 0000 62.6 73 53.9 58.3 WNW | 303 5.5 12.7 NW | 315 0.00 13.6 0.00 61.7 94.3 19.3
8/4/26 - 2300 65.6 65 53.6 59.1 WNW | 300 5.4 14.0 WNW | 302 0.00 13.5 0.00 61.7 94.3 19.3
8/4/26 - 2200 68.7 58 53.1 59.7 WNW | 287 5.8 16.0 WNW | 287 0.00 13.6 0.00 61.7 94.3 19.3
8/4/26 - 2100 73.0 49 52.6 60.5 WNW | 289 6.5 16.4 WNW | 286 0.00 13.5 0.00 61.7 94.3 19.3
8/4/26 - 2000 79.9 38 52.2 61.8 W | 262 7.6 17.3 W | 278 0.00 13.4 0.00 61.7 94.3 19.3
8/4/26 - 1900 86.7 26 47.9 61.0 WNW | 283 7.2 15.8 WNW | 291 0.00 13.2 0.00 61.7 94.3 19.3
8/4/26 - 1800 89.9 18 40.1 58.4 W | 280 7.8 18.4 WNW | 298 0.00 13.3 0.00 61.7 94.3 19.3
8/4/26 - 1700 90.4 20 43.1 59.6 W | 279 9.4 19.3 WNW | 284 0.00 13.3 0.00 61.7 94.3 19.3
8/4/26 - 1600 92.5 21 46.7 61.3 WSW | 255 5.8 15.3 WSW | 248 0.00 13.3 0.00 61.7 94.3 15.3
8/4/26 - 1500 90.9 24 49.5 62.3 WSW | 241 4.9 12.5 WNW | 291 0.00 13.2 0.00 61.7 92.5 12.9
8/4/26 - 1400 88.6 29 51.9 63.1 SW | 234 4.4 12.7 SW | 219 0.00 13.3 0.00 61.7 89.8 12.9
8/4/26 - 1300 83.9 35 53.1 63.0 SW | 236 4.6 12.7 SW | 221 0.00 13.3 0.00 61.7 86.7 12.9
8/4/26 - 1200 79.9 41 53.9 62.8 SW | 220 4.7 12.9 SSW | 205 0.00 13.4 0.00 61.7 82.1 12.9
8/4/26 - 1100 74.9 47 53.3 61.4 SSW | 211 4.5 9.9 SW | 222 0.00 13.5 0.00 61.7 78.1 10.1
8/4/26 - 1000 70.2 56 53.8 60.5 SW | 219 4.6 10.1 SSE | 166 0.00 13.5 0.00 61.7 73.2 10.1
8/4/26 - 0900 66.9 61 53.2 59.2 SW | 223 3.5 9.0 SSW | 213 0.00 13.4 0.00 61.7 69.9 9.0
8/4/26 - 0800 64.4 66 52.6 58.1 WSW | 240 3.3 8.3 WSW | 244 0.00 13.4 0.00 61.7 69.9 8.3
8/4/26 - 0700 62.5 69 52.2 57.2 W | 267 1.4 6.1 WNW | 290 0.00 13.6 0.00 61.7 69.9 8.3
8/4/26 - 0600 62.8 66 51.2 56.7 NW | 308 1.1 3.3 NNW | 327 0.00 13.6 0.00 61.7 69.9 8.3
8/4/26 - 0500 63.9 64 51.6 57.2 WNW | 292 1.5 4.2 NW | 305 0.00 13.6 0.00 63.2 69.9 8.3
8/4/26 - 0400 65.5 62 52.4 58.3 W | 265 1.7 6.1 WSW | 247 0.00 13.6 0.00 64.9 69.9 8.3
8/4/26 - 0300 67.4 61 53.6 59.6 W | 259 3.2 8.3 WSW | 251 0.00 13.6 0.00 66.3 69.9 8.3
8/4/26 - 0200 68.6 53 50.9 58.3 WNW | 285 2.0 7.2 WNW | 295 0.00 13.5 0.00 67.5 69.9 7.2
8/4/26 - 0100 70.2 48 49.6 58.0 WSW | 252 2.6 8.3 W | 274 0.00 13.6 0.00 58.3 101.9 16.2
8/4/26 - 0000 71.8 42 47.4 57.3 WSW | 239 2.0 8.6 W | 267 0.00 13.4 0.00 58.3 101.9 16.2
8/3/26 - 2300 73.7 38 46.5 57.4 W | 266 2.2 8.3 WSW | 239 0.00 13.5 0.00 58.3 101.9 16.2
8/3/26 - 2200 75.9 37 47.7 58.5 WSW | 252 3.8 10.5 WNW | 285 0.00 13.4 0.00 58.3 101.9 16.2
8/3/26 - 2100 80.1 34 49.5 60.4 W | 276 5.7 14.0 W | 275 0.00 13.5 0.00 58.3 101.9 16.2
8/3/26 - 2000 86.7 26 47.4 60.7 W | 277 6.7 15.1 W | 260 0.00 13.4 0.00 58.3 101.9 16.2
8/3/26 - 1900 92.0 22 47.1 61.4 W | 277 7.1 16.2 WNW | 285 0.00 13.2 0.00 58.3 101.9 16.2
8/3/26 - 1800 97.1 16 43.1 60.5 W | 272 6.7 15.1 WNW | 283 0.00 13.1 0.00 58.3 101.9 16.0
8/3/26 - 1700 98.7 17 45.8 61.7 W | 266 6.4 16.0 WSW | 249 0.00 13.1 0.00 58.3 101.9 16.0
8/3/26 - 1600 101.0 13 40.9 60.3 SW | 218 4.6 13.4 SW | 231 0.00 13.0 0.00 58.3 101.9 13.4
8/3/26 - 1500 99.8 12 38.4 59.4 SW | 218 3.8 10.3 S | 184 0.00 13.2 0.00 58.3 101.5 11.4
8/3/26 - 1400 97.4 15 42.2 60.3 SW | 218 4.1 10.7 WSW | 254 0.00 13.2 0.00 58.3 98.7 11.4
8/3/26 - 1300 93.1 20 46.0 61.1 SSW | 211 4.8 11.0 SSW | 192 0.00 13.1 0.00 58.3 95.5 11.4
8/3/26 - 1200 88.0 25 47.8 61.1 SSW | 210 4.3 11.4 SSE | 168 0.00 13.2 0.00 58.3 91.0 11.4
8/3/26 - 1100 80.7 30 46.4 59.0 SSW | 207 3.7 7.7 SSW | 194 0.00 13.2 0.00 58.3 84.5 7.7
8/3/26 - 1000 74.9 43 50.6 59.8 SSW | 208 2.0 6.1 SSW | 198 0.00 13.4 0.00 58.3 77.5 6.1
8/3/26 - 0900 69.6 53 51.8 59.2 SSW | 211 1.4 4.2 SSW | 196 0.00 13.4 0.00 58.3 72.2 4.4
8/3/26 - 0800 65.3 60 50.9 57.3 SSW | 204 0.8 4.4 S | 178 0.00 13.6 0.00 58.3 68.7 4.4
8/3/26 - 0700 60.0 67 49.1 54.4 NE | 49 0.8 2.8 NE | 56 0.00 13.6 0.00 58.3 68.7 4.2
8/3/26 - 0600 59.7 65 48.0 53.7 NE | 51 2.1 4.2 NE | 46 0.00 13.6 0.00 58.8 68.7 4.2
8/3/26 - 0500 62.3 60 48.4 54.9 NE | 48 0.8 3.1 ENE | 65 0.00 13.6 0.00 60.9 68.7 4.2
8/3/26 - 0400 63.5 58 48.3 55.2 NE | 36 1.1 3.7 NW | 310 0.00 13.6 0.00 62.0 68.7 4.2
8/3/26 - 0300 65.5 54 48.7 56.1 NW | 323 0.8 4.2 NW | 306 0.00 13.6 0.00 64.6 68.7 4.2
8/3/26 - 0200 67.1 50 47.9 56.2 NNE | 20 0.7 2.2 NW | 305 0.00 13.6 0.00 65.2 68.7 2.2
8/3/26 - 0100 69.2 47 47.9 56.8 NNE | 31 0.6 3.1 NE | 37 0.00 13.6 0.00 58.0 100.3 19.3
8/3/26 - 0000 71.4 43 47.5 57.2 NE | 45 0.8 4.2 NW | 317 0.00 13.6 0.00 58.0 100.3 19.3
8/2/26 - 2300 75.0 37 47.3 58.1 WSW | 245 1.3 5.9 SW | 232 0.00 13.5 0.00 58.0 100.3 19.3
8/2/26 - 2200 77.7 34 47.4 58.8 NW | 307 1.8 7.5 NNW | 348 0.00 13.5 0.00 58.0 100.3 19.3
8/2/26 - 2100 81.3 32 48.4 60.1 WNW | 297 2.7 8.8 WNW | 286 0.00 13.5 0.00 58.0 100.3 19.3
8/2/26 - 2000 86.2 28 49.4 61.5 W | 277 6.2 14.2 WNW | 285 0.00 13.2 0.00 58.0 100.3 19.3
8/2/26 - 1900 89.5 25 48.8 61.8 W | 275 9.5 19.3 WNW | 285 0.00 13.4 0.00 58.0 100.3 19.3
8/2/26 - 1800 93.8 18 43.9 60.4 W | 266 8.4 17.8 W | 272 0.00 13.3 0.00 58.0 100.3 17.8
8/2/26 - 1700 97.5 15 41.2 60.0 WSW | 251 7.6 16.0 W | 280 0.00 13.2 0.00 58.0 100.3 16.0
8/2/26 - 1600 99.1 17 46.2 62.0 WSW | 254 5.8 14.2 WNW | 291 0.00 13.2 0.00 58.0 100.3 14.2
8/2/26 - 1500 98.3 20 50.0 63.4 SW | 228 4.5 13.4 WSW | 238 0.00 13.2 0.00 58.0 99.7 13.4
8/2/26 - 1400 96.4 20 48.4 62.5 SSW | 212 4.0 9.6 S | 190 0.00 13.2 0.00 58.0 97.9 9.6
8/2/26 - 1300 92.7 22 48.0 61.9 SSW | 212 2.7 7.9 S | 187 0.00 13.1 0.00 58.0 95.7 8.6
8/2/26 - 1200 87.2 28 50.0 62.0 SSW | 211 3.7 8.6 S | 172 0.00 13.3 0.00 58.0 89.8 8.6
8/2/26 - 1100 80.2 38 52.4 62.0 SSW | 209 3.5 7.5 WSW | 238 0.00 13.3 0.00 58.0 85.1 7.5
8/2/26 - 1000 73.9 46 51.7 60.2 SSW | 195 1.7 5.3 S | 178 0.00 13.5 0.00 58.0 77.2 5.5
8/2/26 - 0900 69.2 55 52.6 59.5 SSW | 206 0.9 4.2 S | 170 0.00 13.6 0.00 58.0 71.0 5.5
8/2/26 - 0800 63.7 65 51.8 57.4 SSW | 207 1.7 4.2 S | 180 0.00 13.6 0.00 58.0 68.2 5.5
8/2/26 - 0700 59.4 68 48.8 54.0 N | 8 0.8 3.5 NE | 43 0.00 13.6 0.00 58.0 68.2 5.5
8/2/26 - 0600 60.0 66 48.5 54.1 NNE | 26 0.7 3.3 NE | 52 0.00 13.6 0.00 58.7 68.2 5.5
8/2/26 - 0500 61.4 64 49.1 54.9 NE | 47 0.7 3.1 NNE | 33 0.00 13.6 0.00 60.6 68.2 5.5
8/2/26 - 0400 62.6 62 49.2 55.4 NE | 49 1.2 3.1 NE | 55 0.00 13.7 0.00 61.8 68.2 5.5
8/2/26 - 0300 64.0 59 49.3 56.0 NE | 51 1.2 3.7 NE | 42 0.00 13.7 0.00 63.4 68.2 5.5
8/2/26 - 0200 67.1 54 50.1 57.4 W | 281 2.3 5.5 W | 279 0.00 13.5 0.00 64.8 68.2 5.5
8/2/26 - 0100 69.0 51 50.3 58.1 W | 263 1.8 5.3 W | 281 0.00 13.5 0.00 56.6 94.9 17.5
8/2/26 - 0000 71.5 46 49.8 58.5 W | 274 1.0 3.7 NW | 308 0.00 13.5 0.00 56.6 94.9 17.5
8/1/26 - 2300 73.0 41 48.1 58.0 WNW | 291 1.7 7.0 NNW | 341 0.00 13.5 0.00 56.6 94.9 17.5
Max 101.0 90 55.6 64.4 - 11.9 24.1 - 0.00 13.8 0.00 67.6 101.9 24.1
Avg 70.1 56 50.9 58.5 - 4.6 11.6 - 0.00 13.5 - - - -
Min 54.5 10 27.7 52.8 - 0.1 1.5 - 0.00 13.0 0.00 53.7 56.0 2.2
Total - - - - - - - - 0.00 - - - - -